<?xml version="1.0" encoding="UTF-8" standalone="no" ?>
<gpx xmlns="http://www.topografix.com/GPX/1/1" xmlns:xsi="http://www.w3.org/2001/XMLSchema-instance" xsi:schemaLocation="http://www.topografix.com/GPX/1/1 http://www.topografix.com/GPX/1/1/gpx.xsd" version="1.1" creator="VisuGPX - https://www.visugpx.com">
  <metadata>
    <name>Luz/ Le Hautacam/10.5</name>
    <desc><![CDATA[Vitesse moyenne 10.0 km/h]]></desc>
  </metadata>
  <trk>
    <name><![CDATA[Luz St Sauveur/ Le Hautacam_1]]></name>
    <extensions>
      <line xmlns="http://www.topografix.com/GPX/gpx_style/0/2">
        <color>0000FF</color>
        <width>4</width>
      </line>
    </extensions>
    <trkseg>
      <trkpt lat="42.87312" lon="-0.00312">
        <ele>710.8</ele>
        <time>2024-07-24T22:00:00.000Z</time>
      </trkpt>
      <trkpt lat="42.87324" lon="-0.00325">
        <ele>710.3</ele>
        <time>2024-07-24T22:00:04.434Z</time>
      </trkpt>
      <trkpt lat="42.87339" lon="-0.00327">
        <ele>710</ele>
        <time>2024-07-24T22:00:08.965Z</time>
      </trkpt>
      <trkpt lat="42.87421" lon="-0.00315">
        <ele>708.5</ele>
        <time>2024-07-24T22:00:33.882Z</time>
      </trkpt>
      <trkpt lat="42.87432" lon="-0.00316">
        <ele>708.1</ele>
        <time>2024-07-24T22:00:37.039Z</time>
      </trkpt>
      <trkpt lat="42.87444" lon="-0.00325">
        <ele>707.3</ele>
        <time>2024-07-24T22:00:40.865Z</time>
      </trkpt>
      <trkpt lat="42.87763" lon="-0.00792">
        <ele>684.8</ele>
        <time>2024-07-24T22:02:51.594Z</time>
      </trkpt>
      <trkpt lat="42.88014" lon="-0.01154">
        <ele>671.5</ele>
        <time>2024-07-24T22:04:36.109Z</time>
      </trkpt>
      <trkpt lat="42.8803" lon="-0.0117">
        <ele>670.7</ele>
        <time>2024-07-24T22:04:41.721Z</time>
      </trkpt>
      <trkpt lat="42.88054" lon="-0.01189">
        <ele>669.2</ele>
        <time>2024-07-24T22:04:49.474Z</time>
      </trkpt>
      <trkpt lat="42.88388" lon="-0.01445">
        <ele>654</ele>
        <time>2024-07-24T22:06:38.059Z</time>
      </trkpt>
      <trkpt lat="42.88498" lon="-0.01527">
        <ele>648.2</ele>
        <time>2024-07-24T22:07:13.082Z</time>
      </trkpt>
      <trkpt lat="42.88516" lon="-0.01543">
        <ele>647.4</ele>
        <time>2024-07-24T22:07:19.215Z</time>
      </trkpt>
      <trkpt lat="42.88523" lon="-0.01551">
        <ele>646.6</ele>
        <time>2024-07-24T22:07:21.766Z</time>
      </trkpt>
      <trkpt lat="42.8853" lon="-0.01564">
        <ele>645.9</ele>
        <time>2024-07-24T22:07:25.069Z</time>
      </trkpt>
      <trkpt lat="42.88534" lon="-0.01582">
        <ele>645.1</ele>
        <time>2024-07-24T22:07:28.920Z</time>
      </trkpt>
      <trkpt lat="42.88539" lon="-0.01625">
        <ele>645.4</ele>
        <time>2024-07-24T22:07:39.409Z</time>
      </trkpt>
      <trkpt lat="42.88544" lon="-0.01638">
        <ele>645.8</ele>
        <time>2024-07-24T22:07:43.271Z</time>
      </trkpt>
      <trkpt lat="42.88555" lon="-0.01653">
        <ele>646</ele>
        <time>2024-07-24T22:07:48.439Z</time>
      </trkpt>
      <trkpt lat="42.88595" lon="-0.01692">
        <ele>646.9</ele>
        <time>2024-07-24T22:08:05.058Z</time>
      </trkpt>
      <trkpt lat="42.88801" lon="-0.01874">
        <ele>645.6</ele>
        <time>2024-07-24T22:09:22.160Z</time>
      </trkpt>
      <trkpt lat="42.88813" lon="-0.01885">
        <ele>645.1</ele>
        <time>2024-07-24T22:09:26.319Z</time>
      </trkpt>
      <trkpt lat="42.88829" lon="-0.01904">
        <ele>645</ele>
        <time>2024-07-24T22:09:32.995Z</time>
      </trkpt>
      <trkpt lat="42.88837" lon="-0.01915">
        <ele>644.6</ele>
        <time>2024-07-24T22:09:36.256Z</time>
      </trkpt>
      <trkpt lat="42.88851" lon="-0.0194">
        <ele>645.3</ele>
        <time>2024-07-24T22:09:44.354Z</time>
      </trkpt>
      <trkpt lat="42.88882" lon="-0.02003">
        <ele>647.5</ele>
        <time>2024-07-24T22:10:04.471Z</time>
      </trkpt>
      <trkpt lat="42.88912" lon="-0.02048">
        <ele>650.5</ele>
        <time>2024-07-24T22:10:22.141Z</time>
      </trkpt>
      <trkpt lat="42.88968" lon="-0.02102">
        <ele>642.7</ele>
        <time>2024-07-24T22:10:41.300Z</time>
      </trkpt>
      <trkpt lat="42.88995" lon="-0.02135">
        <ele>643.9</ele>
        <time>2024-07-24T22:10:54.143Z</time>
      </trkpt>
      <trkpt lat="42.89011" lon="-0.02162">
        <ele>641.3</ele>
        <time>2024-07-24T22:11:01.253Z</time>
      </trkpt>
      <trkpt lat="42.89088" lon="-0.02319">
        <ele>637.1</ele>
        <time>2024-07-24T22:11:41.584Z</time>
      </trkpt>
      <trkpt lat="42.89107" lon="-0.02346">
        <ele>635.2</ele>
        <time>2024-07-24T22:11:49.248Z</time>
      </trkpt>
      <trkpt lat="42.89122" lon="-0.02362">
        <ele>633.7</ele>
        <time>2024-07-24T22:11:54.568Z</time>
      </trkpt>
      <trkpt lat="42.89142" lon="-0.02378">
        <ele>633.5</ele>
        <time>2024-07-24T22:12:01.778Z</time>
      </trkpt>
      <trkpt lat="42.8925" lon="-0.02448">
        <ele>632.3</ele>
        <time>2024-07-24T22:12:38.803Z</time>
      </trkpt>
      <trkpt lat="42.89653" lon="-0.02695">
        <ele>626.5</ele>
        <time>2024-07-24T22:14:54.333Z</time>
      </trkpt>
      <trkpt lat="42.89767" lon="-0.02767">
        <ele>624</ele>
        <time>2024-07-24T22:15:32.091Z</time>
      </trkpt>
      <trkpt lat="42.89809" lon="-0.02791">
        <ele>622.8</ele>
        <time>2024-07-24T22:15:45.516Z</time>
      </trkpt>
      <trkpt lat="42.89871" lon="-0.02823">
        <ele>622.6</ele>
        <time>2024-07-24T22:16:06.487Z</time>
      </trkpt>
      <trkpt lat="42.89887" lon="-0.02833">
        <ele>623</ele>
        <time>2024-07-24T22:16:12.520Z</time>
      </trkpt>
      <trkpt lat="42.89902" lon="-0.02844">
        <ele>622.8</ele>
        <time>2024-07-24T22:16:17.766Z</time>
      </trkpt>
      <trkpt lat="42.89945" lon="-0.02882">
        <ele>624.4</ele>
        <time>2024-07-24T22:16:35.809Z</time>
      </trkpt>
      <trkpt lat="42.90001" lon="-0.0292">
        <ele>620.7</ele>
        <time>2024-07-24T22:16:53.284Z</time>
      </trkpt>
      <trkpt lat="42.90049" lon="-0.02955">
        <ele>620.6</ele>
        <time>2024-07-24T22:17:10.564Z</time>
      </trkpt>
      <trkpt lat="42.90241" lon="-0.031">
        <ele>614</ele>
        <time>2024-07-24T22:18:14.547Z</time>
      </trkpt>
      <trkpt lat="42.90279" lon="-0.03123">
        <ele>616.2</ele>
        <time>2024-07-24T22:18:30.256Z</time>
      </trkpt>
      <trkpt lat="42.90323" lon="-0.03146">
        <ele>619.3</ele>
        <time>2024-07-24T22:18:48.838Z</time>
        <extensions>
          <visugpx:TrkExtension xmlns:visugpx="https://www.visugpx.com/editgpx/">
            <visugpx:node>1</visugpx:node>
            </visugpx:TrkExtension>
        </extensions>
      </trkpt>
      <trkpt lat="42.90332" lon="-0.03148">
        <ele>620</ele>
        <time>2024-07-24T22:18:52.570Z</time>
      </trkpt>
      <trkpt lat="42.90348" lon="-0.03147">
        <ele>619.5</ele>
        <time>2024-07-24T22:18:57.225Z</time>
      </trkpt>
      <trkpt lat="42.90372" lon="-0.03137">
        <ele>615.1</ele>
        <time>2024-07-24T22:19:04.236Z</time>
      </trkpt>
      <trkpt lat="42.90388" lon="-0.03136">
        <ele>614.3</ele>
        <time>2024-07-24T22:19:08.712Z</time>
      </trkpt>
      <trkpt lat="42.90397" lon="-0.03138">
        <ele>613.4</ele>
        <time>2024-07-24T22:19:11.260Z</time>
      </trkpt>
      <trkpt lat="42.90405" lon="-0.03142">
        <ele>613.3</ele>
        <time>2024-07-24T22:19:13.884Z</time>
      </trkpt>
      <trkpt lat="42.9043" lon="-0.03165">
        <ele>614.4</ele>
        <time>2024-07-24T22:19:24.684Z</time>
      </trkpt>
      <trkpt lat="42.90446" lon="-0.03188">
        <ele>613.9</ele>
        <time>2024-07-24T22:19:31.634Z</time>
      </trkpt>
      <trkpt lat="42.90496" lon="-0.03283">
        <ele>611.9</ele>
        <time>2024-07-24T22:19:57.127Z</time>
      </trkpt>
      <trkpt lat="42.90542" lon="-0.03354">
        <ele>608</ele>
        <time>2024-07-24T22:20:16.528Z</time>
      </trkpt>
      <trkpt lat="42.90559" lon="-0.03383">
        <ele>606.9</ele>
        <time>2024-07-24T22:20:24.223Z</time>
      </trkpt>
      <trkpt lat="42.90588" lon="-0.03452">
        <ele>602.7</ele>
        <time>2024-07-24T22:20:40.505Z</time>
      </trkpt>
      <trkpt lat="42.90596" lon="-0.03463">
        <ele>602</ele>
        <time>2024-07-24T22:20:43.677Z</time>
      </trkpt>
      <trkpt lat="42.906" lon="-0.03465">
        <ele>601.5</ele>
        <time>2024-07-24T22:20:44.868Z</time>
      </trkpt>
      <trkpt lat="42.9061" lon="-0.03464">
        <ele>600.1</ele>
        <time>2024-07-24T22:20:47.669Z</time>
      </trkpt>
      <trkpt lat="42.90633" lon="-0.03455">
        <ele>603.7</ele>
        <time>2024-07-24T22:21:00.386Z</time>
      </trkpt>
      <trkpt lat="42.90644" lon="-0.03456">
        <ele>606.5</ele>
        <time>2024-07-24T22:21:09.176Z</time>
      </trkpt>
      <trkpt lat="42.90648" lon="-0.03458">
        <ele>607.5</ele>
        <time>2024-07-24T22:21:12.316Z</time>
      </trkpt>
      <trkpt lat="42.9068" lon="-0.03482">
        <ele>610.6</ele>
        <time>2024-07-24T22:21:27.678Z</time>
      </trkpt>
      <trkpt lat="42.90695" lon="-0.0349">
        <ele>611.9</ele>
        <time>2024-07-24T22:21:34.357Z</time>
      </trkpt>
      <trkpt lat="42.90722" lon="-0.03501">
        <ele>615.5</ele>
        <time>2024-07-24T22:21:48.140Z</time>
      </trkpt>
      <trkpt lat="42.90734" lon="-0.03508">
        <ele>617</ele>
        <time>2024-07-24T22:21:54.236Z</time>
      </trkpt>
      <trkpt lat="42.9076" lon="-0.0353">
        <ele>614.6</ele>
        <time>2024-07-24T22:22:02.784Z</time>
      </trkpt>
      <trkpt lat="42.90819" lon="-0.03574">
        <ele>613.9</ele>
        <time>2024-07-24T22:22:23.579Z</time>
      </trkpt>
      <trkpt lat="42.90834" lon="-0.03587">
        <ele>612.6</ele>
        <time>2024-07-24T22:22:28.544Z</time>
      </trkpt>
      <trkpt lat="42.90868" lon="-0.03621">
        <ele>608.4</ele>
        <time>2024-07-24T22:22:40.320Z</time>
      </trkpt>
      <trkpt lat="42.9088" lon="-0.0363">
        <ele>608.4</ele>
        <time>2024-07-24T22:22:44.693Z</time>
      </trkpt>
      <trkpt lat="42.90896" lon="-0.03639">
        <ele>609</ele>
        <time>2024-07-24T22:22:50.856Z</time>
      </trkpt>
      <trkpt lat="42.9093" lon="-0.03655">
        <ele>611.6</ele>
        <time>2024-07-24T22:23:05.352Z</time>
      </trkpt>
      <trkpt lat="42.90943" lon="-0.0366">
        <ele>612.1</ele>
        <time>2024-07-24T22:23:10.199Z</time>
      </trkpt>
      <trkpt lat="42.90954" lon="-0.03662">
        <ele>613.1</ele>
        <time>2024-07-24T22:23:14.952Z</time>
      </trkpt>
      <trkpt lat="42.91005" lon="-0.03664">
        <ele>619.3</ele>
        <time>2024-07-24T22:23:39.354Z</time>
      </trkpt>
      <trkpt lat="42.91066" lon="-0.03672">
        <ele>622.3</ele>
        <time>2024-07-24T22:24:02.214Z</time>
      </trkpt>
      <trkpt lat="42.9109" lon="-0.03677">
        <ele>622.4</ele>
        <time>2024-07-24T22:24:10.066Z</time>
      </trkpt>
      <trkpt lat="42.91108" lon="-0.03684">
        <ele>620.7</ele>
        <time>2024-07-24T22:24:15.296Z</time>
      </trkpt>
      <trkpt lat="42.91139" lon="-0.03703">
        <ele>613.1</ele>
        <time>2024-07-24T22:24:24.791Z</time>
      </trkpt>
      <trkpt lat="42.91152" lon="-0.03709">
        <ele>611</ele>
        <time>2024-07-24T22:24:28.625Z</time>
      </trkpt>
      <trkpt lat="42.91186" lon="-0.03721">
        <ele>606.2</ele>
        <time>2024-07-24T22:24:38.438Z</time>
      </trkpt>
      <trkpt lat="42.91214" lon="-0.03734">
        <ele>602.3</ele>
        <time>2024-07-24T22:24:46.702Z</time>
      </trkpt>
      <trkpt lat="42.91238" lon="-0.0374">
        <ele>601.2</ele>
        <time>2024-07-24T22:24:53.520Z</time>
      </trkpt>
      <trkpt lat="42.91254" lon="-0.03739">
        <ele>602.6</ele>
        <time>2024-07-24T22:25:00.316Z</time>
      </trkpt>
      <trkpt lat="42.91296" lon="-0.0372">
        <ele>611.8</ele>
        <time>2024-07-24T22:25:29.621Z</time>
      </trkpt>
      <trkpt lat="42.91337" lon="-0.03717">
        <ele>608.4</ele>
        <time>2024-07-24T22:25:41.094Z</time>
      </trkpt>
      <trkpt lat="42.91374" lon="-0.03699">
        <ele>615.6</ele>
        <time>2024-07-24T22:26:04.728Z</time>
      </trkpt>
      <trkpt lat="42.91391" lon="-0.03696">
        <ele>615.1</ele>
        <time>2024-07-24T22:26:09.740Z</time>
      </trkpt>
      <trkpt lat="42.91402" lon="-0.03698">
        <ele>614.6</ele>
        <time>2024-07-24T22:26:12.841Z</time>
      </trkpt>
      <trkpt lat="42.91431" lon="-0.03711">
        <ele>610.8</ele>
        <time>2024-07-24T22:26:21.370Z</time>
      </trkpt>
      <trkpt lat="42.9153" lon="-0.03765">
        <ele>613.7</ele>
        <time>2024-07-24T22:26:58.441Z</time>
      </trkpt>
      <trkpt lat="42.91626" lon="-0.03814">
        <ele>621</ele>
        <time>2024-07-24T22:27:39.605Z</time>
      </trkpt>
      <trkpt lat="42.91638" lon="-0.03823">
        <ele>620.7</ele>
        <time>2024-07-24T22:27:43.695Z</time>
      </trkpt>
      <trkpt lat="42.91649" lon="-0.03835">
        <ele>617.5</ele>
        <time>2024-07-24T22:27:47.629Z</time>
      </trkpt>
      <trkpt lat="42.91729" lon="-0.03964">
        <ele>596.7</ele>
        <time>2024-07-24T22:28:22.221Z</time>
      </trkpt>
      <trkpt lat="42.91742" lon="-0.03979">
        <ele>594.5</ele>
        <time>2024-07-24T22:28:26.976Z</time>
      </trkpt>
      <trkpt lat="42.91752" lon="-0.03986">
        <ele>594.6</ele>
        <time>2024-07-24T22:28:30.665Z</time>
      </trkpt>
      <trkpt lat="42.91759" lon="-0.03988">
        <ele>595.7</ele>
        <time>2024-07-24T22:28:34.514Z</time>
      </trkpt>
      <trkpt lat="42.91797" lon="-0.03988">
        <ele>605.3</ele>
        <time>2024-07-24T22:29:04.644Z</time>
      </trkpt>
      <trkpt lat="42.91811" lon="-0.03992">
        <ele>607</ele>
        <time>2024-07-24T22:29:11.420Z</time>
      </trkpt>
      <trkpt lat="42.91826" lon="-0.04004">
        <ele>606</ele>
        <time>2024-07-24T22:29:16.278Z</time>
      </trkpt>
      <trkpt lat="42.91853" lon="-0.04034">
        <ele>598.6</ele>
        <time>2024-07-24T22:29:26.004Z</time>
      </trkpt>
      <trkpt lat="42.91861" lon="-0.04039">
        <ele>597.5</ele>
        <time>2024-07-24T22:29:28.463Z</time>
      </trkpt>
      <trkpt lat="42.91874" lon="-0.0404">
        <ele>598.1</ele>
        <time>2024-07-24T22:29:33.274Z</time>
      </trkpt>
      <trkpt lat="42.91881" lon="-0.04038">
        <ele>599.4</ele>
        <time>2024-07-24T22:29:37.552Z</time>
      </trkpt>
      <trkpt lat="42.91915" lon="-0.04021">
        <ele>606.9</ele>
        <time>2024-07-24T22:30:01.459Z</time>
      </trkpt>
      <trkpt lat="42.91924" lon="-0.04018">
        <ele>608</ele>
        <time>2024-07-24T22:30:05.846Z</time>
      </trkpt>
      <trkpt lat="42.91938" lon="-0.04019">
        <ele>607</ele>
        <time>2024-07-24T22:30:09.763Z</time>
      </trkpt>
      <trkpt lat="42.91962" lon="-0.04026">
        <ele>604.4</ele>
        <time>2024-07-24T22:30:16.621Z</time>
      </trkpt>
      <trkpt lat="42.91974" lon="-0.04027">
        <ele>604.8</ele>
        <time>2024-07-24T22:30:20.883Z</time>
      </trkpt>
      <trkpt lat="42.91997" lon="-0.04023">
        <ele>613</ele>
        <time>2024-07-24T22:30:48.833Z</time>
      </trkpt>
      <trkpt lat="42.92004" lon="-0.04024">
        <ele>616.4</ele>
        <time>2024-07-24T22:31:00.632Z</time>
      </trkpt>
      <trkpt lat="42.92017" lon="-0.0403">
        <ele>623</ele>
        <time>2024-07-24T22:31:23.639Z</time>
      </trkpt>
      <trkpt lat="42.9203" lon="-0.04045">
        <ele>622.8</ele>
        <time>2024-07-24T22:31:28.882Z</time>
      </trkpt>
      <trkpt lat="42.92048" lon="-0.0407">
        <ele>616.3</ele>
        <time>2024-07-24T22:31:36.056Z</time>
      </trkpt>
      <trkpt lat="42.92053" lon="-0.04075">
        <ele>615.1</ele>
        <time>2024-07-24T22:31:37.788Z</time>
      </trkpt>
      <trkpt lat="42.92069" lon="-0.04085">
        <ele>612.5</ele>
        <time>2024-07-24T22:31:42.705Z</time>
      </trkpt>
      <trkpt lat="42.92082" lon="-0.04091">
        <ele>610.8</ele>
        <time>2024-07-24T22:31:46.539Z</time>
      </trkpt>
      <trkpt lat="42.92099" lon="-0.04095">
        <ele>608.2</ele>
        <time>2024-07-24T22:31:51.359Z</time>
      </trkpt>
      <trkpt lat="42.92152" lon="-0.041">
        <ele>596.6</ele>
        <time>2024-07-24T22:32:06.204Z</time>
      </trkpt>
      <trkpt lat="42.92162" lon="-0.04099">
        <ele>595.8</ele>
        <time>2024-07-24T22:32:09.006Z</time>
      </trkpt>
      <trkpt lat="42.92171" lon="-0.04096">
        <ele>597.5</ele>
        <time>2024-07-24T22:32:14.585Z</time>
      </trkpt>
      <trkpt lat="42.92212" lon="-0.04078">
        <ele>605.4</ele>
        <time>2024-07-24T22:32:40.511Z</time>
      </trkpt>
      <trkpt lat="42.92254" lon="-0.04076">
        <ele>595.7</ele>
        <time>2024-07-24T22:32:52.254Z</time>
      </trkpt>
      <trkpt lat="42.92287" lon="-0.04069">
        <ele>595.2</ele>
        <time>2024-07-24T22:33:02.443Z</time>
      </trkpt>
      <trkpt lat="42.92301" lon="-0.04072">
        <ele>590.9</ele>
        <time>2024-07-24T22:33:06.403Z</time>
      </trkpt>
      <trkpt lat="42.92334" lon="-0.04084">
        <ele>580.6</ele>
        <time>2024-07-24T22:33:15.945Z</time>
      </trkpt>
      <trkpt lat="42.9235" lon="-0.04087">
        <ele>580.2</ele>
        <time>2024-07-24T22:33:20.729Z</time>
      </trkpt>
      <trkpt lat="42.9236" lon="-0.04087">
        <ele>581.4</ele>
        <time>2024-07-24T22:33:25.486Z</time>
      </trkpt>
      <trkpt lat="42.92393" lon="-0.0408">
        <ele>593.6</ele>
        <time>2024-07-24T22:34:07.685Z</time>
      </trkpt>
      <trkpt lat="42.92406" lon="-0.04085">
        <ele>594.4</ele>
        <time>2024-07-24T22:34:12.896Z</time>
      </trkpt>
      <trkpt lat="42.92412" lon="-0.0409">
        <ele>592.8</ele>
        <time>2024-07-24T22:34:14.860Z</time>
      </trkpt>
      <trkpt lat="42.9245" lon="-0.04135">
        <ele>579</ele>
        <time>2024-07-24T22:34:28.914Z</time>
      </trkpt>
      <trkpt lat="42.9249" lon="-0.04172">
        <ele>574.9</ele>
        <time>2024-07-24T22:34:42.414Z</time>
      </trkpt>
      <trkpt lat="42.92522" lon="-0.04197">
        <ele>569.7</ele>
        <time>2024-07-24T22:34:52.715Z</time>
      </trkpt>
      <trkpt lat="42.92544" lon="-0.04211">
        <ele>565.2</ele>
        <time>2024-07-24T22:34:59.497Z</time>
      </trkpt>
      <trkpt lat="42.92562" lon="-0.04213">
        <ele>564.7</ele>
        <time>2024-07-24T22:35:04.801Z</time>
      </trkpt>
      <trkpt lat="42.92571" lon="-0.04211">
        <ele>564.9</ele>
        <time>2024-07-24T22:35:07.919Z</time>
      </trkpt>
      <trkpt lat="42.92578" lon="-0.04207">
        <ele>566.3</ele>
        <time>2024-07-24T22:35:12.506Z</time>
      </trkpt>
      <trkpt lat="42.92586" lon="-0.04199">
        <ele>569.3</ele>
        <time>2024-07-24T22:35:22.177Z</time>
      </trkpt>
      <trkpt lat="42.92605" lon="-0.04173">
        <ele>582.1</ele>
        <time>2024-07-24T22:36:07.271Z</time>
      </trkpt>
      <trkpt lat="42.92612" lon="-0.04166">
        <ele>584.4</ele>
        <time>2024-07-24T22:36:14.512Z</time>
      </trkpt>
      <trkpt lat="42.92623" lon="-0.0416">
        <ele>587.3</ele>
        <time>2024-07-24T22:36:23.609Z</time>
      </trkpt>
      <trkpt lat="42.92631" lon="-0.04159">
        <ele>587</ele>
        <time>2024-07-24T22:36:25.902Z</time>
      </trkpt>
      <trkpt lat="42.92686" lon="-0.04164">
        <ele>584.1</ele>
        <time>2024-07-24T22:36:41.304Z</time>
      </trkpt>
      <trkpt lat="42.927" lon="-0.04166">
        <ele>584.2</ele>
        <time>2024-07-24T22:36:45.899Z</time>
      </trkpt>
      <trkpt lat="42.92722" lon="-0.04172">
        <ele>583.5</ele>
        <time>2024-07-24T22:36:52.420Z</time>
      </trkpt>
      <trkpt lat="42.92777" lon="-0.04191">
        <ele>577.2</ele>
        <time>2024-07-24T22:37:08.272Z</time>
      </trkpt>
      <trkpt lat="42.92831" lon="-0.04218">
        <ele>577.6</ele>
        <time>2024-07-24T22:37:27.035Z</time>
      </trkpt>
      <trkpt lat="42.92853" lon="-0.04233">
        <ele>574.6</ele>
        <time>2024-07-24T22:37:33.906Z</time>
      </trkpt>
      <trkpt lat="42.92882" lon="-0.04261">
        <ele>568.6</ele>
        <time>2024-07-24T22:37:43.830Z</time>
      </trkpt>
      <trkpt lat="42.92902" lon="-0.04285">
        <ele>564.4</ele>
        <time>2024-07-24T22:37:51.269Z</time>
      </trkpt>
      <trkpt lat="42.92939" lon="-0.04336">
        <ele>558.2</ele>
        <time>2024-07-24T22:38:05.958Z</time>
      </trkpt>
      <trkpt lat="42.92964" lon="-0.04367">
        <ele>559.6</ele>
        <time>2024-07-24T22:38:18.250Z</time>
      </trkpt>
      <trkpt lat="42.92973" lon="-0.04384">
        <ele>556.9</ele>
        <time>2024-07-24T22:38:22.542Z</time>
      </trkpt>
      <trkpt lat="42.92986" lon="-0.04433">
        <ele>545.3</ele>
        <time>2024-07-24T22:38:33.205Z</time>
      </trkpt>
      <trkpt lat="42.9301" lon="-0.04492">
        <ele>535.9</ele>
        <time>2024-07-24T22:38:47.014Z</time>
      </trkpt>
      <trkpt lat="42.93029" lon="-0.04529">
        <ele>533.5</ele>
        <time>2024-07-24T22:38:56.260Z</time>
      </trkpt>
      <trkpt lat="42.93046" lon="-0.04552">
        <ele>536.1</ele>
        <time>2024-07-24T22:39:07.193Z</time>
        <extensions>
          <visugpx:TrkExtension xmlns:visugpx="https://www.visugpx.com/editgpx/">
            <visugpx:node>2</visugpx:node>
            </visugpx:TrkExtension>
        </extensions>
      </trkpt>
      <trkpt lat="42.93067" lon="-0.0458">
        <ele>535.4</ele>
        <time>2024-07-24T22:39:15.911Z</time>
      </trkpt>
      <trkpt lat="42.93079" lon="-0.04593">
        <ele>534.8</ele>
        <time>2024-07-24T22:39:20.259Z</time>
      </trkpt>
      <trkpt lat="42.93099" lon="-0.04607">
        <ele>534.3</ele>
        <time>2024-07-24T22:39:26.967Z</time>
      </trkpt>
      <trkpt lat="42.93113" lon="-0.04611">
        <ele>535.3</ele>
        <time>2024-07-24T22:39:32.687Z</time>
      </trkpt>
      <trkpt lat="42.93165" lon="-0.04607">
        <ele>542.4</ele>
        <time>2024-07-24T22:39:58.966Z</time>
      </trkpt>
      <trkpt lat="42.93205" lon="-0.04615">
        <ele>544.9</ele>
        <time>2024-07-24T22:40:14.701Z</time>
      </trkpt>
      <trkpt lat="42.93218" lon="-0.0462">
        <ele>545.4</ele>
        <time>2024-07-24T22:40:19.548Z</time>
      </trkpt>
      <trkpt lat="42.93265" lon="-0.04649">
        <ele>537.8</ele>
        <time>2024-07-24T22:40:33.959Z</time>
      </trkpt>
      <trkpt lat="42.93307" lon="-0.04667">
        <ele>539.1</ele>
        <time>2024-07-24T22:40:49.380Z</time>
      </trkpt>
      <trkpt lat="42.93319" lon="-0.04674">
        <ele>544.4</ele>
        <time>2024-07-24T22:41:08.665Z</time>
      </trkpt>
      <trkpt lat="42.93378" lon="-0.0472">
        <ele>553</ele>
        <time>2024-07-24T22:41:41.756Z</time>
      </trkpt>
      <trkpt lat="42.93401" lon="-0.0474">
        <ele>553.5</ele>
        <time>2024-07-24T22:41:50.974Z</time>
      </trkpt>
      <trkpt lat="42.93426" lon="-0.04767">
        <ele>552.3</ele>
        <time>2024-07-24T22:42:00.062Z</time>
      </trkpt>
      <trkpt lat="42.93438" lon="-0.04785">
        <ele>550.2</ele>
        <time>2024-07-24T22:42:05.043Z</time>
      </trkpt>
      <trkpt lat="42.9346" lon="-0.04847">
        <ele>525.5</ele>
        <time>2024-07-24T22:42:19.138Z</time>
      </trkpt>
      <trkpt lat="42.9347" lon="-0.04861">
        <ele>521.3</ele>
        <time>2024-07-24T22:42:23.139Z</time>
      </trkpt>
      <trkpt lat="42.93476" lon="-0.04866">
        <ele>520.8</ele>
        <time>2024-07-24T22:42:25.103Z</time>
      </trkpt>
      <trkpt lat="42.93485" lon="-0.0487">
        <ele>521</ele>
        <time>2024-07-24T22:42:28.331Z</time>
      </trkpt>
      <trkpt lat="42.935" lon="-0.0487">
        <ele>524.2</ele>
        <time>2024-07-24T22:42:38.481Z</time>
      </trkpt>
      <trkpt lat="42.93586" lon="-0.04847">
        <ele>526.4</ele>
        <time>2024-07-24T22:43:08.751Z</time>
      </trkpt>
      <trkpt lat="42.93597" lon="-0.04846">
        <ele>526.3</ele>
        <time>2024-07-24T22:43:12.175Z</time>
      </trkpt>
      <trkpt lat="42.93644" lon="-0.04849">
        <ele>523.2</ele>
        <time>2024-07-24T22:43:25.323Z</time>
      </trkpt>
      <trkpt lat="42.93652" lon="-0.04851">
        <ele>523.3</ele>
        <time>2024-07-24T22:43:28.021Z</time>
      </trkpt>
      <trkpt lat="42.93664" lon="-0.04858">
        <ele>520.7</ele>
        <time>2024-07-24T22:43:31.667Z</time>
      </trkpt>
      <trkpt lat="42.93679" lon="-0.04876">
        <ele>518</ele>
        <time>2024-07-24T22:43:37.246Z</time>
      </trkpt>
      <trkpt lat="42.93703" lon="-0.04926">
        <ele>511</ele>
        <time>2024-07-24T22:43:49.477Z</time>
      </trkpt>
      <trkpt lat="42.93722" lon="-0.04945">
        <ele>510.8</ele>
        <time>2024-07-24T22:43:56.803Z</time>
      </trkpt>
      <trkpt lat="42.93749" lon="-0.04962">
        <ele>512.6</ele>
        <time>2024-07-24T22:44:08.326Z</time>
      </trkpt>
      <trkpt lat="42.93794" lon="-0.04985">
        <ele>517.3</ele>
        <time>2024-07-24T22:44:29.462Z</time>
      </trkpt>
      <trkpt lat="42.9387" lon="-0.05027">
        <ele>517.6</ele>
        <time>2024-07-24T22:44:55.940Z</time>
      </trkpt>
      <trkpt lat="42.93883" lon="-0.05036">
        <ele>517.5</ele>
        <time>2024-07-24T22:45:00.498Z</time>
      </trkpt>
      <trkpt lat="42.93894" lon="-0.05048">
        <ele>516.5</ele>
        <time>2024-07-24T22:45:04.431Z</time>
      </trkpt>
      <trkpt lat="42.93918" lon="-0.05082">
        <ele>513.1</ele>
        <time>2024-07-24T22:45:14.093Z</time>
      </trkpt>
      <trkpt lat="42.93931" lon="-0.05108">
        <ele>512.5</ele>
        <time>2024-07-24T22:45:20.895Z</time>
      </trkpt>
      <trkpt lat="42.9394" lon="-0.0514">
        <ele>509.4</ele>
        <time>2024-07-24T22:45:27.908Z</time>
      </trkpt>
      <trkpt lat="42.93952" lon="-0.05205">
        <ele>506.5</ele>
        <time>2024-07-24T22:45:41.621Z</time>
      </trkpt>
      <trkpt lat="42.93964" lon="-0.05248">
        <ele>503.8</ele>
        <time>2024-07-24T22:45:51.034Z</time>
      </trkpt>
      <trkpt lat="42.93983" lon="-0.05297">
        <ele>501.8</ele>
        <time>2024-07-24T22:46:02.377Z</time>
      </trkpt>
      <trkpt lat="42.93994" lon="-0.05314">
        <ele>500.9</ele>
        <time>2024-07-24T22:46:07.018Z</time>
      </trkpt>
      <trkpt lat="42.94005" lon="-0.05323">
        <ele>500.2</ele>
        <time>2024-07-24T22:46:10.601Z</time>
      </trkpt>
      <trkpt lat="42.9402" lon="-0.0533">
        <ele>499.5</ele>
        <time>2024-07-24T22:46:15.035Z</time>
      </trkpt>
      <trkpt lat="42.94039" lon="-0.05329">
        <ele>499</ele>
        <time>2024-07-24T22:46:20.643Z</time>
      </trkpt>
      <trkpt lat="42.94047" lon="-0.05325">
        <ele>499.1</ele>
        <time>2024-07-24T22:46:23.464Z</time>
      </trkpt>
      <trkpt lat="42.94054" lon="-0.0532">
        <ele>499.5</ele>
        <time>2024-07-24T22:46:26.427Z</time>
      </trkpt>
      <trkpt lat="42.9409" lon="-0.05278">
        <ele>498.5</ele>
        <time>2024-07-24T22:46:40.606Z</time>
      </trkpt>
      <trkpt lat="42.94131" lon="-0.05235">
        <ele>496.8</ele>
        <time>2024-07-24T22:46:55.554Z</time>
      </trkpt>
      <trkpt lat="42.94158" lon="-0.05215">
        <ele>497.8</ele>
        <time>2024-07-24T22:47:06.418Z</time>
      </trkpt>
      <trkpt lat="42.94166" lon="-0.05212">
        <ele>497.9</ele>
        <time>2024-07-24T22:47:09.168Z</time>
      </trkpt>
      <trkpt lat="42.94181" lon="-0.05211">
        <ele>499.2</ele>
        <time>2024-07-24T22:47:15.523Z</time>
      </trkpt>
      <trkpt lat="42.94191" lon="-0.05213">
        <ele>499.7</ele>
        <time>2024-07-24T22:47:19.299Z</time>
      </trkpt>
      <trkpt lat="42.94199" lon="-0.05216">
        <ele>500.7</ele>
        <time>2024-07-24T22:47:23.253Z</time>
      </trkpt>
      <trkpt lat="42.9421" lon="-0.05223">
        <ele>501.6</ele>
        <time>2024-07-24T22:47:28.176Z</time>
      </trkpt>
      <trkpt lat="42.94219" lon="-0.05231">
        <ele>501.1</ele>
        <time>2024-07-24T22:47:31.176Z</time>
      </trkpt>
      <trkpt lat="42.94269" lon="-0.05287">
        <ele>503.9</ele>
        <time>2024-07-24T22:47:54.855Z</time>
      </trkpt>
      <trkpt lat="42.94278" lon="-0.05295">
        <ele>502.7</ele>
        <time>2024-07-24T22:47:57.855Z</time>
      </trkpt>
      <trkpt lat="42.94372" lon="-0.05354">
        <ele>499.4</ele>
        <time>2024-07-24T22:48:27.858Z</time>
      </trkpt>
      <trkpt lat="42.94389" lon="-0.05367">
        <ele>498.6</ele>
        <time>2024-07-24T22:48:33.358Z</time>
      </trkpt>
      <trkpt lat="42.94432" lon="-0.0541">
        <ele>499.5</ele>
        <time>2024-07-24T22:48:51.294Z</time>
      </trkpt>
      <trkpt lat="42.94481" lon="-0.05467">
        <ele>499</ele>
        <time>2024-07-24T22:49:11.363Z</time>
      </trkpt>
      <trkpt lat="42.94526" lon="-0.05525">
        <ele>496.5</ele>
        <time>2024-07-24T22:49:28.862Z</time>
      </trkpt>
      <trkpt lat="42.94565" lon="-0.05571">
        <ele>497</ele>
        <time>2024-07-24T22:49:45.818Z</time>
      </trkpt>
      <trkpt lat="42.94649" lon="-0.05665">
        <ele>495</ele>
        <time>2024-07-24T22:50:18.603Z</time>
      </trkpt>
      <trkpt lat="42.94664" lon="-0.05685">
        <ele>493.6</ele>
        <time>2024-07-24T22:50:24.460Z</time>
      </trkpt>
      <trkpt lat="42.94681" lon="-0.05716">
        <ele>495.8</ele>
        <time>2024-07-24T22:50:36.096Z</time>
      </trkpt>
      <trkpt lat="42.94688" lon="-0.05734">
        <ele>494.3</ele>
        <time>2024-07-24T22:50:40.265Z</time>
      </trkpt>
      <trkpt lat="42.94698" lon="-0.05771">
        <ele>495.3</ele>
        <time>2024-07-24T22:50:50.546Z</time>
      </trkpt>
      <trkpt lat="42.94719" lon="-0.05876">
        <ele>490.9</ele>
        <time>2024-07-24T22:51:12.809Z</time>
      </trkpt>
      <trkpt lat="42.94745" lon="-0.05949">
        <ele>488.8</ele>
        <time>2024-07-24T22:51:29.870Z</time>
      </trkpt>
      <trkpt lat="42.94761" lon="-0.05984">
        <ele>490.1</ele>
        <time>2024-07-24T22:51:40.922Z</time>
      </trkpt>
      <trkpt lat="42.94809" lon="-0.06062">
        <ele>489.9</ele>
        <time>2024-07-24T22:52:04.546Z</time>
      </trkpt>
      <trkpt lat="42.94849" lon="-0.06138">
        <ele>494.1</ele>
        <time>2024-07-24T22:52:31.167Z</time>
      </trkpt>
      <trkpt lat="42.94893" lon="-0.0623">
        <ele>485.8</ele>
        <time>2024-07-24T22:52:53.645Z</time>
      </trkpt>
      <trkpt lat="42.94946" lon="-0.06324">
        <ele>483.8</ele>
        <time>2024-07-24T22:53:19.508Z</time>
      </trkpt>
      <trkpt lat="42.94955" lon="-0.06344">
        <ele>484.8</ele>
        <time>2024-07-24T22:53:26.116Z</time>
      </trkpt>
      <trkpt lat="42.94985" lon="-0.06423">
        <ele>485.8</ele>
        <time>2024-07-24T22:53:47.935Z</time>
      </trkpt>
      <trkpt lat="42.94999" lon="-0.06472">
        <ele>480.9</ele>
        <time>2024-07-24T22:53:58.693Z</time>
      </trkpt>
      <trkpt lat="42.95046" lon="-0.06697">
        <ele>483.7</ele>
        <time>2024-07-24T22:54:56.238Z</time>
      </trkpt>
      <trkpt lat="42.95057" lon="-0.06729">
        <ele>479.8</ele>
        <time>2024-07-24T22:55:03.468Z</time>
      </trkpt>
      <trkpt lat="42.9507" lon="-0.06745">
        <ele>479.6</ele>
        <time>2024-07-24T22:55:08.864Z</time>
        <extensions>
          <visugpx:TrkExtension xmlns:visugpx="https://www.visugpx.com/editgpx/">
            <visugpx:node>3</visugpx:node>
            </visugpx:TrkExtension>
        </extensions>
      </trkpt>
      <trkpt lat="42.95075" lon="-0.06736">
        <ele>479.9</ele>
        <time>2024-07-24T22:55:11.825Z</time>
      </trkpt>
      <trkpt lat="42.95082" lon="-0.0673">
        <ele>480</ele>
        <time>2024-07-24T22:55:14.564Z</time>
      </trkpt>
      <trkpt lat="42.95086" lon="-0.06729">
        <ele>479.8</ele>
        <time>2024-07-24T22:55:15.701Z</time>
      </trkpt>
      <trkpt lat="42.95095" lon="-0.0673">
        <ele>479.3</ele>
        <time>2024-07-24T22:55:18.224Z</time>
      </trkpt>
      <trkpt lat="42.95105" lon="-0.06724">
        <ele>478.5</ele>
        <time>2024-07-24T22:55:21.276Z</time>
      </trkpt>
      <trkpt lat="42.95141" lon="-0.06682">
        <ele>477.3</ele>
        <time>2024-07-24T22:55:35.275Z</time>
      </trkpt>
      <trkpt lat="42.95148" lon="-0.06679">
        <ele>477</ele>
        <time>2024-07-24T22:55:37.348Z</time>
      </trkpt>
      <trkpt lat="42.95163" lon="-0.0666">
        <ele>475.8</ele>
        <time>2024-07-24T22:55:43.063Z</time>
      </trkpt>
      <trkpt lat="42.9518" lon="-0.06644">
        <ele>474.9</ele>
        <time>2024-07-24T22:55:48.848Z</time>
      </trkpt>
      <trkpt lat="42.95202" lon="-0.06629">
        <ele>474.1</ele>
        <time>2024-07-24T22:55:55.966Z</time>
      </trkpt>
      <trkpt lat="42.95251" lon="-0.06607">
        <ele>476.1</ele>
        <time>2024-07-24T22:56:14.579Z</time>
      </trkpt>
      <trkpt lat="42.95287" lon="-0.06587">
        <ele>476.8</ele>
        <time>2024-07-24T22:56:27.705Z</time>
      </trkpt>
      <trkpt lat="42.95309" lon="-0.06569">
        <ele>478.4</ele>
        <time>2024-07-24T22:56:37.705Z</time>
      </trkpt>
      <trkpt lat="42.95362" lon="-0.06516">
        <ele>480.1</ele>
        <time>2024-07-24T22:57:00.448Z</time>
      </trkpt>
      <trkpt lat="42.95381" lon="-0.06504">
        <ele>479.5</ele>
        <time>2024-07-24T22:57:06.577Z</time>
      </trkpt>
      <trkpt lat="42.95391" lon="-0.065">
        <ele>479.8</ele>
        <time>2024-07-24T22:57:10.219Z</time>
      </trkpt>
      <trkpt lat="42.95402" lon="-0.06497">
        <ele>479.5</ele>
        <time>2024-07-24T22:57:13.523Z</time>
      </trkpt>
      <trkpt lat="42.95414" lon="-0.06496">
        <ele>478.9</ele>
        <time>2024-07-24T22:57:16.882Z</time>
      </trkpt>
      <trkpt lat="42.95428" lon="-0.06497">
        <ele>478.9</ele>
        <time>2024-07-24T22:57:21.359Z</time>
      </trkpt>
      <trkpt lat="42.9544" lon="-0.065">
        <ele>478.8</ele>
        <time>2024-07-24T22:57:25.158Z</time>
      </trkpt>
      <trkpt lat="42.9546" lon="-0.06509">
        <ele>475.6</ele>
        <time>2024-07-24T22:57:31.042Z</time>
      </trkpt>
      <trkpt lat="42.95538" lon="-0.06557">
        <ele>472.8</ele>
        <time>2024-07-24T22:57:55.792Z</time>
      </trkpt>
      <trkpt lat="42.95563" lon="-0.06567">
        <ele>471.3</ele>
        <time>2024-07-24T22:58:03.071Z</time>
      </trkpt>
      <trkpt lat="42.95595" lon="-0.06572">
        <ele>470.4</ele>
        <time>2024-07-24T22:58:12.522Z</time>
      </trkpt>
      <trkpt lat="42.95635" lon="-0.06573">
        <ele>468.9</ele>
        <time>2024-07-24T22:58:23.936Z</time>
      </trkpt>
      <trkpt lat="42.95669" lon="-0.0657">
        <ele>469</ele>
        <time>2024-07-24T22:58:34.915Z</time>
      </trkpt>
      <trkpt lat="42.95687" lon="-0.06566">
        <ele>468.8</ele>
        <time>2024-07-24T22:58:40.547Z</time>
      </trkpt>
      <trkpt lat="42.95702" lon="-0.06561">
        <ele>468.2</ele>
        <time>2024-07-24T22:58:44.934Z</time>
      </trkpt>
      <trkpt lat="42.95713" lon="-0.06555">
        <ele>468</ele>
        <time>2024-07-24T22:58:48.526Z</time>
      </trkpt>
      <trkpt lat="42.95735" lon="-0.06535">
        <ele>467</ele>
        <time>2024-07-24T22:58:56.057Z</time>
      </trkpt>
      <trkpt lat="42.95757" lon="-0.06505">
        <ele>466.7</ele>
        <time>2024-07-24T22:59:05.694Z</time>
      </trkpt>
      <trkpt lat="42.9579" lon="-0.0645">
        <ele>466.1</ele>
        <time>2024-07-24T22:59:21.740Z</time>
      </trkpt>
      <trkpt lat="42.9581" lon="-0.06425">
        <ele>465.6</ele>
        <time>2024-07-24T22:59:29.924Z</time>
      </trkpt>
      <trkpt lat="42.95825" lon="-0.06409">
        <ele>464.8</ele>
        <time>2024-07-24T22:59:35.281Z</time>
      </trkpt>
      <trkpt lat="42.95848" lon="-0.06389">
        <ele>465</ele>
        <time>2024-07-24T22:59:44.187Z</time>
      </trkpt>
      <trkpt lat="42.95861" lon="-0.0638">
        <ele>464.4</ele>
        <time>2024-07-24T22:59:48.300Z</time>
      </trkpt>
      <trkpt lat="42.95915" lon="-0.06343">
        <ele>463.1</ele>
        <time>2024-07-24T23:00:06.370Z</time>
      </trkpt>
      <trkpt lat="42.95962" lon="-0.06315">
        <ele>462.1</ele>
        <time>2024-07-24T23:00:21.801Z</time>
      </trkpt>
      <trkpt lat="42.9598" lon="-0.06307">
        <ele>462.3</ele>
        <time>2024-07-24T23:00:28.046Z</time>
      </trkpt>
      <trkpt lat="42.9602" lon="-0.06297">
        <ele>460.8</ele>
        <time>2024-07-24T23:00:39.668Z</time>
      </trkpt>
      <trkpt lat="42.96038" lon="-0.06295">
        <ele>460.4</ele>
        <time>2024-07-24T23:00:45.060Z</time>
      </trkpt>
      <trkpt lat="42.96131" lon="-0.06293">
        <ele>459</ele>
        <time>2024-07-24T23:01:13.430Z</time>
      </trkpt>
      <trkpt lat="42.96161" lon="-0.0629">
        <ele>459.8</ele>
        <time>2024-07-24T23:01:23.870Z</time>
      </trkpt>
      <trkpt lat="42.96202" lon="-0.06283">
        <ele>459.8</ele>
        <time>2024-07-24T23:01:37.064Z</time>
      </trkpt>
      <trkpt lat="42.96246" lon="-0.06269">
        <ele>459</ele>
        <time>2024-07-24T23:01:50.734Z</time>
      </trkpt>
      <trkpt lat="42.96262" lon="-0.06262">
        <ele>459</ele>
        <time>2024-07-24T23:01:56.099Z</time>
      </trkpt>
      <trkpt lat="42.96295" lon="-0.06244">
        <ele>458.3</ele>
        <time>2024-07-24T23:02:06.786Z</time>
      </trkpt>
      <trkpt lat="42.96325" lon="-0.06224">
        <ele>458</ele>
        <time>2024-07-24T23:02:17.157Z</time>
      </trkpt>
      <trkpt lat="42.96361" lon="-0.06197">
        <ele>458</ele>
        <time>2024-07-24T23:02:30.271Z</time>
      </trkpt>
      <trkpt lat="42.9642" lon="-0.06144">
        <ele>456.9</ele>
        <time>2024-07-24T23:02:51.772Z</time>
      </trkpt>
      <trkpt lat="42.96479" lon="-0.06095">
        <ele>455.9</ele>
        <time>2024-07-24T23:03:12.867Z</time>
      </trkpt>
      <trkpt lat="42.96512" lon="-0.06074">
        <ele>455.2</ele>
        <time>2024-07-24T23:03:23.832Z</time>
      </trkpt>
      <trkpt lat="42.96538" lon="-0.06064">
        <ele>455</ele>
        <time>2024-07-24T23:03:32.264Z</time>
      </trkpt>
      <trkpt lat="42.96562" lon="-0.0606">
        <ele>454.8</ele>
        <time>2024-07-24T23:03:39.792Z</time>
      </trkpt>
      <trkpt lat="42.96588" lon="-0.06063">
        <ele>454.5</ele>
        <time>2024-07-24T23:03:47.836Z</time>
      </trkpt>
      <trkpt lat="42.966" lon="-0.06067">
        <ele>454.9</ele>
        <time>2024-07-24T23:03:52.203Z</time>
      </trkpt>
      <trkpt lat="42.96625" lon="-0.06079">
        <ele>455</ele>
        <time>2024-07-24T23:04:00.764Z</time>
      </trkpt>
      <trkpt lat="42.96689" lon="-0.0612">
        <ele>454</ele>
        <time>2024-07-24T23:04:22.382Z</time>
        <extensions>
          <visugpx:TrkExtension xmlns:visugpx="https://www.visugpx.com/editgpx/">
            <visugpx:node>4</visugpx:node>
            </visugpx:TrkExtension>
        </extensions>
      </trkpt>
      <trkpt lat="42.96729" lon="-0.06144">
        <ele>453.7</ele>
        <time>2024-07-24T23:04:36.042Z</time>
      </trkpt>
      <trkpt lat="42.96769" lon="-0.06162">
        <ele>454.3</ele>
        <time>2024-07-24T23:04:50.099Z</time>
      </trkpt>
      <trkpt lat="42.968" lon="-0.06173">
        <ele>452.8</ele>
        <time>2024-07-24T23:04:59.049Z</time>
      </trkpt>
      <trkpt lat="42.96889" lon="-0.062">
        <ele>452.8</ele>
        <time>2024-07-24T23:05:28.162Z</time>
      </trkpt>
      <trkpt lat="42.96944" lon="-0.06223">
        <ele>452</ele>
        <time>2024-07-24T23:05:45.767Z</time>
      </trkpt>
      <trkpt lat="42.96995" lon="-0.06253">
        <ele>451</ele>
        <time>2024-07-24T23:06:02.552Z</time>
      </trkpt>
      <trkpt lat="42.97031" lon="-0.06278">
        <ele>450.9</ele>
        <time>2024-07-24T23:06:15.349Z</time>
        <extensions>
          <visugpx:TrkExtension xmlns:visugpx="https://www.visugpx.com/editgpx/">
            <visugpx:node>5</visugpx:node>
            </visugpx:TrkExtension>
        </extensions>
      </trkpt>
      <trkpt lat="42.97045" lon="-0.06288">
        <ele>450.4</ele>
        <time>2024-07-24T23:06:19.934Z</time>
      </trkpt>
      <trkpt lat="42.97069" lon="-0.0626">
        <ele>450.6</ele>
        <time>2024-07-24T23:06:30.210Z</time>
      </trkpt>
      <trkpt lat="42.9708" lon="-0.06256">
        <ele>450.8</ele>
        <time>2024-07-24T23:06:34.050Z</time>
      </trkpt>
      <trkpt lat="42.9709" lon="-0.06255">
        <ele>451.2</ele>
        <time>2024-07-24T23:06:37.681Z</time>
      </trkpt>
      <trkpt lat="42.97102" lon="-0.06256">
        <ele>451.8</ele>
        <time>2024-07-24T23:06:42.180Z</time>
      </trkpt>
      <trkpt lat="42.97148" lon="-0.0627">
        <ele>454.4</ele>
        <time>2024-07-24T23:07:00.122Z</time>
      </trkpt>
      <trkpt lat="42.97164" lon="-0.06273">
        <ele>455.4</ele>
        <time>2024-07-24T23:07:06.410Z</time>
      </trkpt>
      <trkpt lat="42.97182" lon="-0.06272">
        <ele>455.6</ele>
        <time>2024-07-24T23:07:12.364Z</time>
      </trkpt>
      <trkpt lat="42.9722" lon="-0.06262">
        <ele>457.5</ele>
        <time>2024-07-24T23:07:26.807Z</time>
      </trkpt>
      <trkpt lat="42.97235" lon="-0.06262">
        <ele>457.6</ele>
        <time>2024-07-24T23:07:31.697Z</time>
      </trkpt>
      <trkpt lat="42.97341" lon="-0.06293">
        <ele>461.2</ele>
        <time>2024-07-24T23:08:10.122Z</time>
      </trkpt>
      <trkpt lat="42.97428" lon="-0.06314">
        <ele>463</ele>
        <time>2024-07-24T23:08:40.185Z</time>
      </trkpt>
      <trkpt lat="42.97487" lon="-0.06304">
        <ele>463.6</ele>
        <time>2024-07-24T23:08:59.773Z</time>
      </trkpt>
      <trkpt lat="42.97529" lon="-0.06306">
        <ele>464</ele>
        <time>2024-07-24T23:09:13.595Z</time>
      </trkpt>
      <trkpt lat="42.97573" lon="-0.06313">
        <ele>464.5</ele>
        <time>2024-07-24T23:09:28.245Z</time>
      </trkpt>
      <trkpt lat="42.97637" lon="-0.06331">
        <ele>467</ele>
        <time>2024-07-24T23:09:51.786Z</time>
      </trkpt>
      <trkpt lat="42.97647" lon="-0.06336">
        <ele>466.8</ele>
        <time>2024-07-24T23:09:54.998Z</time>
      </trkpt>
      <trkpt lat="42.97669" lon="-0.06356">
        <ele>465.4</ele>
        <time>2024-07-24T23:10:02.381Z</time>
      </trkpt>
      <trkpt lat="42.97684" lon="-0.06373">
        <ele>464.1</ele>
        <time>2024-07-24T23:10:07.825Z</time>
      </trkpt>
      <trkpt lat="42.97821" lon="-0.06546">
        <ele>453.7</ele>
        <time>2024-07-24T23:10:59.943Z</time>
      </trkpt>
      <trkpt lat="42.97953" lon="-0.06708">
        <ele>446.4</ele>
        <time>2024-07-24T23:11:50.013Z</time>
        <extensions>
          <visugpx:TrkExtension xmlns:visugpx="https://www.visugpx.com/editgpx/">
            <visugpx:node>6</visugpx:node>
            </visugpx:TrkExtension>
        </extensions>
      </trkpt>
      <trkpt lat="42.97987" lon="-0.06748">
        <ele>444.9</ele>
        <time>2024-07-24T23:12:02.965Z</time>
      </trkpt>
      <trkpt lat="42.98005" lon="-0.06754">
        <ele>443.7</ele>
        <time>2024-07-24T23:12:08.142Z</time>
      </trkpt>
      <trkpt lat="42.98026" lon="-0.06755">
        <ele>442.9</ele>
        <time>2024-07-24T23:12:14.126Z</time>
      </trkpt>
      <trkpt lat="42.98062" lon="-0.06748">
        <ele>443.1</ele>
        <time>2024-07-24T23:12:25.937Z</time>
      </trkpt>
      <trkpt lat="42.98086" lon="-0.06746">
        <ele>443.8</ele>
        <time>2024-07-24T23:12:34.349Z</time>
      </trkpt>
      <trkpt lat="42.9813" lon="-0.06773">
        <ele>442.7</ele>
        <time>2024-07-24T23:12:48.721Z</time>
      </trkpt>
      <trkpt lat="42.98173" lon="-0.06803">
        <ele>440.9</ele>
        <time>2024-07-24T23:13:02.502Z</time>
      </trkpt>
      <trkpt lat="42.98226" lon="-0.06816">
        <ele>441.1</ele>
        <time>2024-07-24T23:13:19.896Z</time>
      </trkpt>
      <trkpt lat="42.98259" lon="-0.06832">
        <ele>443.5</ele>
        <time>2024-07-24T23:13:33.833Z</time>
      </trkpt>
      <trkpt lat="42.98295" lon="-0.06868">
        <ele>438.7</ele>
        <time>2024-07-24T23:13:46.297Z</time>
      </trkpt>
      <trkpt lat="42.98337" lon="-0.0692">
        <ele>437.9</ele>
        <time>2024-07-24T23:14:03.630Z</time>
      </trkpt>
      <trkpt lat="42.98365" lon="-0.0695">
        <ele>437</ele>
        <time>2024-07-24T23:14:14.152Z</time>
      </trkpt>
      <trkpt lat="42.98407" lon="-0.06981">
        <ele>437</ele>
        <time>2024-07-24T23:14:29.395Z</time>
      </trkpt>
      <trkpt lat="42.98474" lon="-0.07017">
        <ele>437</ele>
        <time>2024-07-24T23:14:52.385Z</time>
      </trkpt>
      <trkpt lat="42.9859" lon="-0.07054">
        <ele>436</ele>
        <time>2024-07-24T23:15:29.458Z</time>
      </trkpt>
      <trkpt lat="42.98614" lon="-0.07057">
        <ele>436</ele>
        <time>2024-07-24T23:15:37.154Z</time>
      </trkpt>
      <trkpt lat="42.98655" lon="-0.07055">
        <ele>436</ele>
        <time>2024-07-24T23:15:50.256Z</time>
      </trkpt>
      <trkpt lat="42.98758" lon="-0.07042">
        <ele>435.5</ele>
        <time>2024-07-24T23:16:22.802Z</time>
      </trkpt>
      <trkpt lat="42.98829" lon="-0.07036">
        <ele>435.1</ele>
        <time>2024-07-24T23:16:45.130Z</time>
      </trkpt>
      <trkpt lat="42.98896" lon="-0.07042">
        <ele>434</ele>
        <time>2024-07-24T23:17:05.527Z</time>
      </trkpt>
      <trkpt lat="42.98934" lon="-0.07053">
        <ele>434</ele>
        <time>2024-07-24T23:17:17.931Z</time>
      </trkpt>
      <trkpt lat="42.98968" lon="-0.07068">
        <ele>434</ele>
        <time>2024-07-24T23:17:29.341Z</time>
      </trkpt>
      <trkpt lat="42.99081" lon="-0.07135">
        <ele>436.8</ele>
        <time>2024-07-24T23:18:11.567Z</time>
      </trkpt>
      <trkpt lat="42.99188" lon="-0.07167">
        <ele>442.8</ele>
        <time>2024-07-24T23:18:53.214Z</time>
      </trkpt>
      <trkpt lat="42.99224" lon="-0.07166">
        <ele>444.1</ele>
        <time>2024-07-24T23:19:06.097Z</time>
        <extensions>
          <visugpx:TrkExtension xmlns:visugpx="https://www.visugpx.com/editgpx/">
            <visugpx:node>7</visugpx:node>
            </visugpx:TrkExtension>
        </extensions>
      </trkpt>
      <trkpt lat="42.99275" lon="-0.07164">
        <ele>448</ele>
        <time>2024-07-24T23:19:26.954Z</time>
      </trkpt>
      <trkpt lat="42.9928" lon="-0.07161">
        <ele>448.4</ele>
        <time>2024-07-24T23:19:29.162Z</time>
      </trkpt>
      <trkpt lat="42.99286" lon="-0.07154">
        <ele>448.8</ele>
        <time>2024-07-24T23:19:32.121Z</time>
      </trkpt>
      <trkpt lat="42.99329" lon="-0.07084">
        <ele>455</ele>
        <time>2024-07-24T23:20:01.019Z</time>
      </trkpt>
      <trkpt lat="42.9934" lon="-0.0702">
        <ele>459.2</ele>
        <time>2024-07-24T23:20:21.421Z</time>
      </trkpt>
      <trkpt lat="42.99347" lon="-0.06995">
        <ele>459.7</ele>
        <time>2024-07-24T23:20:28.193Z</time>
      </trkpt>
      <trkpt lat="42.99355" lon="-0.06978">
        <ele>460.6</ele>
        <time>2024-07-24T23:20:33.930Z</time>
      </trkpt>
      <trkpt lat="42.99373" lon="-0.06956">
        <ele>462.2</ele>
        <time>2024-07-24T23:20:43.467Z</time>
      </trkpt>
      <trkpt lat="42.99397" lon="-0.06946">
        <ele>463.6</ele>
        <time>2024-07-24T23:20:53.039Z</time>
      </trkpt>
      <trkpt lat="42.9949" lon="-0.06925">
        <ele>466.9</ele>
        <time>2024-07-24T23:21:26.646Z</time>
      </trkpt>
      <trkpt lat="42.99515" lon="-0.06911">
        <ele>467.7</ele>
        <time>2024-07-24T23:21:36.112Z</time>
      </trkpt>
      <trkpt lat="42.99569" lon="-0.06865">
        <ele>469.2</ele>
        <time>2024-07-24T23:21:57.983Z</time>
      </trkpt>
      <trkpt lat="42.99591" lon="-0.06853">
        <ele>469.3</ele>
        <time>2024-07-24T23:22:05.646Z</time>
      </trkpt>
      <trkpt lat="42.99609" lon="-0.06855">
        <ele>468.2</ele>
        <time>2024-07-24T23:22:10.693Z</time>
      </trkpt>
      <trkpt lat="42.99632" lon="-0.06865">
        <ele>467.9</ele>
        <time>2024-07-24T23:22:18.113Z</time>
      </trkpt>
      <trkpt lat="42.99663" lon="-0.06897">
        <ele>463.2</ele>
        <time>2024-07-24T23:22:28.966Z</time>
      </trkpt>
      <trkpt lat="42.99696" lon="-0.06938">
        <ele>460.5</ele>
        <time>2024-07-24T23:22:41.426Z</time>
      </trkpt>
      <trkpt lat="42.99729" lon="-0.06967">
        <ele>458.6</ele>
        <time>2024-07-24T23:22:52.387Z</time>
      </trkpt>
      <trkpt lat="42.99768" lon="-0.06989">
        <ele>456.7</ele>
        <time>2024-07-24T23:23:04.176Z</time>
      </trkpt>
      <trkpt lat="42.99774" lon="-0.07003">
        <ele>454.8</ele>
        <time>2024-07-24T23:23:07.492Z</time>
      </trkpt>
      <trkpt lat="42.99823" lon="-0.07011">
        <ele>455.4</ele>
        <time>2024-07-24T23:23:23.857Z</time>
      </trkpt>
      <trkpt lat="42.99949" lon="-0.0702">
        <ele>456</ele>
        <time>2024-07-24T23:24:04.745Z</time>
      </trkpt>
      <trkpt lat="42.9998" lon="-0.07015">
        <ele>456.5</ele>
        <time>2024-07-24T23:24:15.222Z</time>
      </trkpt>
      <trkpt lat="43.00017" lon="-0.06999">
        <ele>455.8</ele>
        <time>2024-07-24T23:24:26.952Z</time>
      </trkpt>
      <trkpt lat="43.00116" lon="-0.06971">
        <ele>449.2</ele>
        <time>2024-07-24T23:24:55.201Z</time>
      </trkpt>
      <trkpt lat="43.00126" lon="-0.06956">
        <ele>450.1</ele>
        <time>2024-07-24T23:25:00.956Z</time>
      </trkpt>
      <trkpt lat="43.00137" lon="-0.06948">
        <ele>450.8</ele>
        <time>2024-07-24T23:25:05.715Z</time>
      </trkpt>
      <trkpt lat="43.00218" lon="-0.06917">
        <ele>456.8</ele>
        <time>2024-07-24T23:25:39.511Z</time>
      </trkpt>
      <trkpt lat="43.00253" lon="-0.06906">
        <ele>459.1</ele>
        <time>2024-07-24T23:25:53.592Z</time>
      </trkpt>
      <trkpt lat="43.00258" lon="-0.06887">
        <ele>459.4</ele>
        <time>2024-07-24T23:25:58.616Z</time>
        <extensions>
          <visugpx:TrkExtension xmlns:visugpx="https://www.visugpx.com/editgpx/">
            <visugpx:node>8</visugpx:node>
            </visugpx:TrkExtension>
        </extensions>
      </trkpt>
      <trkpt lat="43.00266" lon="-0.06858">
        <ele>460.7</ele>
        <time>2024-07-24T23:26:07.308Z</time>
      </trkpt>
      <trkpt lat="43.0027" lon="-0.06851">
        <ele>461.2</ele>
        <time>2024-07-24T23:26:09.969Z</time>
      </trkpt>
      <trkpt lat="43.00334" lon="-0.06754">
        <ele>467.7</ele>
        <time>2024-07-24T23:26:47.933Z</time>
      </trkpt>
      <trkpt lat="43.00357" lon="-0.06722">
        <ele>470.9</ele>
        <time>2024-07-24T23:27:02.353Z</time>
      </trkpt>
      <trkpt lat="43.00406" lon="-0.06666">
        <ele>475.4</ele>
        <time>2024-07-24T23:27:27.936Z</time>
      </trkpt>
      <trkpt lat="43.00409" lon="-0.06645">
        <ele>476.8</ele>
        <time>2024-07-24T23:27:34.624Z</time>
      </trkpt>
      <trkpt lat="43.00438" lon="-0.06581">
        <ele>482.3</ele>
        <time>2024-07-24T23:27:59.020Z</time>
      </trkpt>
      <trkpt lat="43.00458" lon="-0.06552">
        <ele>485</ele>
        <time>2024-07-24T23:28:11.615Z</time>
      </trkpt>
      <trkpt lat="43.00467" lon="-0.06534">
        <ele>487.1</ele>
        <time>2024-07-24T23:28:19.526Z</time>
        <extensions>
          <visugpx:TrkExtension xmlns:visugpx="https://www.visugpx.com/editgpx/">
            <visugpx:node>9</visugpx:node>
            </visugpx:TrkExtension>
        </extensions>
      </trkpt>
      <trkpt lat="43.00461" lon="-0.0653">
        <ele>487.7</ele>
        <time>2024-07-24T23:28:22.383Z</time>
      </trkpt>
      <trkpt lat="43.0045" lon="-0.06526">
        <ele>488.2</ele>
        <time>2024-07-24T23:28:26.560Z</time>
      </trkpt>
      <trkpt lat="43.00439" lon="-0.06501">
        <ele>491.9</ele>
        <time>2024-07-24T23:28:38.922Z</time>
      </trkpt>
      <trkpt lat="43.00433" lon="-0.06496">
        <ele>492.5</ele>
        <time>2024-07-24T23:28:41.883Z</time>
      </trkpt>
      <trkpt lat="43.00409" lon="-0.06483">
        <ele>494.7</ele>
        <time>2024-07-24T23:28:52.756Z</time>
      </trkpt>
      <trkpt lat="43.00388" lon="-0.06458">
        <ele>499</ele>
        <time>2024-07-24T23:29:07.774Z</time>
      </trkpt>
      <trkpt lat="43.00326" lon="-0.06428">
        <ele>503.7</ele>
        <time>2024-07-24T23:29:34.211Z</time>
      </trkpt>
      <trkpt lat="43.00281" lon="-0.06403">
        <ele>506.7</ele>
        <time>2024-07-24T23:29:53.111Z</time>
      </trkpt>
      <trkpt lat="43.00267" lon="-0.06392">
        <ele>507.3</ele>
        <time>2024-07-24T23:29:58.908Z</time>
      </trkpt>
      <trkpt lat="43.00254" lon="-0.06372">
        <ele>509.3</ele>
        <time>2024-07-24T23:30:07.649Z</time>
      </trkpt>
      <trkpt lat="43.00232" lon="-0.06323">
        <ele>514.2</ele>
        <time>2024-07-24T23:30:27.406Z</time>
      </trkpt>
      <trkpt lat="43.00224" lon="-0.063">
        <ele>515.9</ele>
        <time>2024-07-24T23:30:35.416Z</time>
      </trkpt>
      <trkpt lat="43.00215" lon="-0.0625">
        <ele>521</ele>
        <time>2024-07-24T23:30:54.355Z</time>
      </trkpt>
      <trkpt lat="43.00212" lon="-0.06243">
        <ele>522</ele>
        <time>2024-07-24T23:30:57.730Z</time>
      </trkpt>
      <trkpt lat="43.00197" lon="-0.06231">
        <ele>523</ele>
        <time>2024-07-24T23:31:04.398Z</time>
      </trkpt>
      <trkpt lat="43.00145" lon="-0.0623">
        <ele>526.9</ele>
        <time>2024-07-24T23:31:25.553Z</time>
      </trkpt>
      <trkpt lat="43.00139" lon="-0.06232">
        <ele>527.2</ele>
        <time>2024-07-24T23:31:27.854Z</time>
      </trkpt>
      <trkpt lat="43.00096" lon="-0.06269">
        <ele>526.6</ele>
        <time>2024-07-24T23:31:43.503Z</time>
      </trkpt>
      <trkpt lat="43.00073" lon="-0.06283">
        <ele>528</ele>
        <time>2024-07-24T23:31:53.102Z</time>
      </trkpt>
      <trkpt lat="43.00052" lon="-0.06286">
        <ele>532.2</ele>
        <time>2024-07-24T23:32:06.600Z</time>
      </trkpt>
      <trkpt lat="42.99985" lon="-0.06286">
        <ele>540.8</ele>
        <time>2024-07-24T23:32:39.443Z</time>
      </trkpt>
      <trkpt lat="42.99974" lon="-0.06284">
        <ele>541.2</ele>
        <time>2024-07-24T23:32:43.413Z</time>
      </trkpt>
      <trkpt lat="42.99966" lon="-0.0628">
        <ele>542.2</ele>
        <time>2024-07-24T23:32:47.427Z</time>
      </trkpt>
      <trkpt lat="42.99941" lon="-0.06244">
        <ele>549.2</ele>
        <time>2024-07-24T23:33:10.091Z</time>
      </trkpt>
      <trkpt lat="42.99922" lon="-0.06225">
        <ele>552</ele>
        <time>2024-07-24T23:33:21.246Z</time>
      </trkpt>
      <trkpt lat="42.99877" lon="-0.06211">
        <ele>553.3</ele>
        <time>2024-07-24T23:33:37.344Z</time>
      </trkpt>
      <trkpt lat="42.99862" lon="-0.06201">
        <ele>555</ele>
        <time>2024-07-24T23:33:44.789Z</time>
      </trkpt>
      <trkpt lat="42.99848" lon="-0.06198">
        <ele>556</ele>
        <time>2024-07-24T23:33:50.469Z</time>
      </trkpt>
      <trkpt lat="42.9983" lon="-0.06201">
        <ele>556.5</ele>
        <time>2024-07-24T23:33:56.782Z</time>
        <extensions>
          <visugpx:TrkExtension xmlns:visugpx="https://www.visugpx.com/editgpx/">
            <visugpx:node>10</visugpx:node>
            </visugpx:TrkExtension>
        </extensions>
      </trkpt>
      <trkpt lat="42.99821" lon="-0.06204">
        <ele>556.9</ele>
        <time>2024-07-24T23:34:00.173Z</time>
      </trkpt>
      <trkpt lat="42.99806" lon="-0.06204">
        <ele>557.9</ele>
        <time>2024-07-24T23:34:06.106Z</time>
      </trkpt>
      <trkpt lat="42.99785" lon="-0.06188">
        <ele>561.5</ele>
        <time>2024-07-24T23:34:18.849Z</time>
      </trkpt>
      <trkpt lat="42.99776" lon="-0.06183">
        <ele>562.8</ele>
        <time>2024-07-24T23:34:23.707Z</time>
      </trkpt>
      <trkpt lat="42.99754" lon="-0.06187">
        <ele>563.8</ele>
        <time>2024-07-24T23:34:31.881Z</time>
      </trkpt>
      <trkpt lat="42.99733" lon="-0.06194">
        <ele>564.3</ele>
        <time>2024-07-24T23:34:39.301Z</time>
      </trkpt>
      <trkpt lat="42.99719" lon="-0.06195">
        <ele>565</ele>
        <time>2024-07-24T23:34:44.547Z</time>
      </trkpt>
      <trkpt lat="42.99701" lon="-0.06194">
        <ele>565</ele>
        <time>2024-07-24T23:34:50.300Z</time>
      </trkpt>
      <trkpt lat="42.99667" lon="-0.06181">
        <ele>564.9</ele>
        <time>2024-07-24T23:35:01.476Z</time>
      </trkpt>
      <trkpt lat="42.99632" lon="-0.06178">
        <ele>565.8</ele>
        <time>2024-07-24T23:35:13.611Z</time>
      </trkpt>
      <trkpt lat="42.99566" lon="-0.06152">
        <ele>575.1</ele>
        <time>2024-07-24T23:35:48.152Z</time>
      </trkpt>
      <trkpt lat="42.99553" lon="-0.0614">
        <ele>577.8</ele>
        <time>2024-07-24T23:35:57.195Z</time>
      </trkpt>
      <trkpt lat="42.99524" lon="-0.06103">
        <ele>584.8</ele>
        <time>2024-07-24T23:36:20.446Z</time>
      </trkpt>
      <trkpt lat="42.99448" lon="-0.06017">
        <ele>593.5</ele>
        <time>2024-07-24T23:37:02.422Z</time>
      </trkpt>
      <trkpt lat="42.99423" lon="-0.05936">
        <ele>604.3</ele>
        <time>2024-07-24T23:37:38.913Z</time>
      </trkpt>
      <trkpt lat="42.99398" lon="-0.05884">
        <ele>607.5</ele>
        <time>2024-07-24T23:37:57.138Z</time>
      </trkpt>
      <trkpt lat="42.99384" lon="-0.05849">
        <ele>610.1</ele>
        <time>2024-07-24T23:38:09.592Z</time>
      </trkpt>
      <trkpt lat="42.99374" lon="-0.05816">
        <ele>612.4</ele>
        <time>2024-07-24T23:38:20.703Z</time>
      </trkpt>
      <trkpt lat="42.99364" lon="-0.05772">
        <ele>616</ele>
        <time>2024-07-24T23:38:36.002Z</time>
      </trkpt>
      <trkpt lat="42.99359" lon="-0.05762">
        <ele>615.9</ele>
        <time>2024-07-24T23:38:38.736Z</time>
      </trkpt>
      <trkpt lat="42.99349" lon="-0.05755">
        <ele>614.8</ele>
        <time>2024-07-24T23:38:41.875Z</time>
      </trkpt>
      <trkpt lat="42.9934" lon="-0.05756">
        <ele>612.9</ele>
        <time>2024-07-24T23:38:44.398Z</time>
      </trkpt>
      <trkpt lat="42.9933" lon="-0.05768">
        <ele>612.2</ele>
        <time>2024-07-24T23:38:48.116Z</time>
        <extensions>
          <visugpx:TrkExtension xmlns:visugpx="https://www.visugpx.com/editgpx/">
            <visugpx:node>11</visugpx:node>
            </visugpx:TrkExtension>
        </extensions>
      </trkpt>
      <trkpt lat="42.99327" lon="-0.05772">
        <ele>613.2</ele>
        <time>2024-07-24T23:38:51.254Z</time>
      </trkpt>
      <trkpt lat="42.99311" lon="-0.05832">
        <ele>614.4</ele>
        <time>2024-07-24T23:39:07.420Z</time>
      </trkpt>
      <trkpt lat="42.99304" lon="-0.05848">
        <ele>613.7</ele>
        <time>2024-07-24T23:39:11.230Z</time>
      </trkpt>
      <trkpt lat="42.9929" lon="-0.05869">
        <ele>612.3</ele>
        <time>2024-07-24T23:39:17.037Z</time>
      </trkpt>
      <trkpt lat="42.99256" lon="-0.0589">
        <ele>612.7</ele>
        <time>2024-07-24T23:39:29.354Z</time>
      </trkpt>
      <trkpt lat="42.99243" lon="-0.05896">
        <ele>613.5</ele>
        <time>2024-07-24T23:39:34.632Z</time>
      </trkpt>
      <trkpt lat="42.99202" lon="-0.05902">
        <ele>617.9</ele>
        <time>2024-07-24T23:39:53.344Z</time>
      </trkpt>
      <trkpt lat="42.99178" lon="-0.059">
        <ele>620.4</ele>
        <time>2024-07-24T23:40:04.151Z</time>
      </trkpt>
      <trkpt lat="42.99156" lon="-0.05896">
        <ele>623.4</ele>
        <time>2024-07-24T23:40:15.303Z</time>
      </trkpt>
      <trkpt lat="42.99141" lon="-0.05898">
        <ele>624.5</ele>
        <time>2024-07-24T23:40:21.392Z</time>
      </trkpt>
      <trkpt lat="42.99135" lon="-0.05901">
        <ele>624.6</ele>
        <time>2024-07-24T23:40:23.534Z</time>
      </trkpt>
      <trkpt lat="42.99026" lon="-0.05991">
        <ele>629.8</ele>
        <time>2024-07-24T23:41:09.796Z</time>
      </trkpt>
      <trkpt lat="42.9902" lon="-0.05993">
        <ele>629.9</ele>
        <time>2024-07-24T23:41:11.870Z</time>
      </trkpt>
      <trkpt lat="42.99009" lon="-0.05993">
        <ele>631.2</ele>
        <time>2024-07-24T23:41:17.068Z</time>
      </trkpt>
      <trkpt lat="42.98999" lon="-0.0599">
        <ele>633.1</ele>
        <time>2024-07-24T23:41:23.283Z</time>
      </trkpt>
      <trkpt lat="42.9899" lon="-0.05985">
        <ele>633.8</ele>
        <time>2024-07-24T23:41:27.196Z</time>
      </trkpt>
      <trkpt lat="42.98982" lon="-0.05976">
        <ele>635.8</ele>
        <time>2024-07-24T23:41:33.669Z</time>
      </trkpt>
      <trkpt lat="42.98976" lon="-0.05965">
        <ele>638.5</ele>
        <time>2024-07-24T23:41:42.182Z</time>
      </trkpt>
      <trkpt lat="42.9896" lon="-0.05918">
        <ele>648.9</ele>
        <time>2024-07-24T23:42:15.054Z</time>
        <extensions>
          <visugpx:TrkExtension xmlns:visugpx="https://www.visugpx.com/editgpx/">
            <visugpx:node>12</visugpx:node>
            </visugpx:TrkExtension>
        </extensions>
      </trkpt>
      <trkpt lat="42.98924" lon="-0.05852">
        <ele>660.4</ele>
        <time>2024-07-24T23:42:52.377Z</time>
      </trkpt>
      <trkpt lat="42.98897" lon="-0.05813">
        <ele>666.5</ele>
        <time>2024-07-24T23:43:13.633Z</time>
      </trkpt>
      <trkpt lat="42.98889" lon="-0.05804">
        <ele>667.7</ele>
        <time>2024-07-24T23:43:18.489Z</time>
      </trkpt>
      <trkpt lat="42.98846" lon="-0.05779">
        <ele>667.1</ele>
        <time>2024-07-24T23:43:32.837Z</time>
      </trkpt>
      <trkpt lat="42.98822" lon="-0.05769">
        <ele>664.6</ele>
        <time>2024-07-24T23:43:39.848Z</time>
      </trkpt>
      <trkpt lat="42.98804" lon="-0.05758">
        <ele>663.2</ele>
        <time>2024-07-24T23:43:45.357Z</time>
      </trkpt>
      <trkpt lat="42.98794" lon="-0.05738">
        <ele>666.4</ele>
        <time>2024-07-24T23:43:55.909Z</time>
      </trkpt>
      <trkpt lat="42.98759" lon="-0.05643">
        <ele>685.6</ele>
        <time>2024-07-24T23:44:56.139Z</time>
      </trkpt>
      <trkpt lat="42.98754" lon="-0.05633">
        <ele>687.2</ele>
        <time>2024-07-24T23:45:01.415Z</time>
      </trkpt>
      <trkpt lat="42.98747" lon="-0.05626">
        <ele>687</ele>
        <time>2024-07-24T23:45:03.997Z</time>
      </trkpt>
      <trkpt lat="42.98713" lon="-0.05604">
        <ele>683.2</ele>
        <time>2024-07-24T23:45:14.508Z</time>
      </trkpt>
      <trkpt lat="42.98697" lon="-0.05589">
        <ele>682.9</ele>
        <time>2024-07-24T23:45:20.419Z</time>
      </trkpt>
      <trkpt lat="42.98692" lon="-0.05581">
        <ele>683.8</ele>
        <time>2024-07-24T23:45:24.040Z</time>
      </trkpt>
      <trkpt lat="42.98686" lon="-0.05562">
        <ele>687.3</ele>
        <time>2024-07-24T23:45:35.042Z</time>
      </trkpt>
      <trkpt lat="42.98677" lon="-0.05511">
        <ele>696.7</ele>
        <time>2024-07-24T23:46:04.529Z</time>
      </trkpt>
      <trkpt lat="42.98659" lon="-0.05444">
        <ele>703</ele>
        <time>2024-07-24T23:46:29.425Z</time>
      </trkpt>
      <trkpt lat="42.98648" lon="-0.05415">
        <ele>703.5</ele>
        <time>2024-07-24T23:46:37.571Z</time>
      </trkpt>
      <trkpt lat="42.98631" lon="-0.05384">
        <ele>702.6</ele>
        <time>2024-07-24T23:46:45.794Z</time>
      </trkpt>
      <trkpt lat="42.98554" lon="-0.05258">
        <ele>713.9</ele>
        <time>2024-07-24T23:47:37.948Z</time>
      </trkpt>
      <trkpt lat="42.98518" lon="-0.05191">
        <ele>723.5</ele>
        <time>2024-07-24T23:48:11.173Z</time>
      </trkpt>
      <trkpt lat="42.98502" lon="-0.05168">
        <ele>728.9</ele>
        <time>2024-07-24T23:48:28.140Z</time>
      </trkpt>
      <trkpt lat="42.98482" lon="-0.0516">
        <ele>728.2</ele>
        <time>2024-07-24T23:48:34.154Z</time>
      </trkpt>
      <trkpt lat="42.98465" lon="-0.05148">
        <ele>729.1</ele>
        <time>2024-07-24T23:48:41.247Z</time>
      </trkpt>
      <trkpt lat="42.98431" lon="-0.05111">
        <ele>731.6</ele>
        <time>2024-07-24T23:48:57.922Z</time>
      </trkpt>
      <trkpt lat="42.98424" lon="-0.05101">
        <ele>732.5</ele>
        <time>2024-07-24T23:49:02.240Z</time>
      </trkpt>
      <trkpt lat="42.98418" lon="-0.05086">
        <ele>734.7</ele>
        <time>2024-07-24T23:49:09.555Z</time>
      </trkpt>
      <trkpt lat="42.98409" lon="-0.05052">
        <ele>742.5</ele>
        <time>2024-07-24T23:49:34.540Z</time>
      </trkpt>
      <trkpt lat="42.98404" lon="-0.05039">
        <ele>745.8</ele>
        <time>2024-07-24T23:49:45.221Z</time>
      </trkpt>
      <trkpt lat="42.984" lon="-0.05034">
        <ele>747</ele>
        <time>2024-07-24T23:49:49.008Z</time>
      </trkpt>
      <trkpt lat="42.98395" lon="-0.05032">
        <ele>747</ele>
        <time>2024-07-24T23:49:50.672Z</time>
        <extensions>
          <visugpx:TrkExtension xmlns:visugpx="https://www.visugpx.com/editgpx/">
            <visugpx:node>13</visugpx:node>
            </visugpx:TrkExtension>
        </extensions>
      </trkpt>
      <trkpt lat="42.98388" lon="-0.0503">
        <ele>747.1</ele>
        <time>2024-07-24T23:49:53.057Z</time>
      </trkpt>
      <trkpt lat="42.98372" lon="-0.05031">
        <ele>747.2</ele>
        <time>2024-07-24T23:49:58.271Z</time>
      </trkpt>
      <trkpt lat="42.98355" lon="-0.05036">
        <ele>746</ele>
        <time>2024-07-24T23:50:03.130Z</time>
      </trkpt>
      <trkpt lat="42.98319" lon="-0.05054">
        <ele>740.8</ele>
        <time>2024-07-24T23:50:13.841Z</time>
      </trkpt>
      <trkpt lat="42.9831" lon="-0.05056">
        <ele>740.4</ele>
        <time>2024-07-24T23:50:16.395Z</time>
      </trkpt>
      <trkpt lat="42.98299" lon="-0.05056">
        <ele>740.8</ele>
        <time>2024-07-24T23:50:20.334Z</time>
      </trkpt>
      <trkpt lat="42.98257" lon="-0.05037">
        <ele>749.5</ele>
        <time>2024-07-24T23:50:48.366Z</time>
      </trkpt>
      <trkpt lat="42.98233" lon="-0.05029">
        <ele>751.5</ele>
        <time>2024-07-24T23:50:58.621Z</time>
      </trkpt>
      <trkpt lat="42.982" lon="-0.05022">
        <ele>750.3</ele>
        <time>2024-07-24T23:51:08.192Z</time>
      </trkpt>
      <trkpt lat="42.98144" lon="-0.04991">
        <ele>755</ele>
        <time>2024-07-24T23:51:33.003Z</time>
      </trkpt>
      <trkpt lat="42.9813" lon="-0.04986">
        <ele>755.2</ele>
        <time>2024-07-24T23:51:37.826Z</time>
      </trkpt>
      <trkpt lat="42.98036" lon="-0.04964">
        <ele>759.4</ele>
        <time>2024-07-24T23:52:12.835Z</time>
      </trkpt>
      <trkpt lat="42.9801" lon="-0.04964">
        <ele>760.4</ele>
        <time>2024-07-24T23:52:22.209Z</time>
      </trkpt>
      <trkpt lat="42.97983" lon="-0.04971">
        <ele>759.3</ele>
        <time>2024-07-24T23:52:29.991Z</time>
      </trkpt>
      <trkpt lat="42.97966" lon="-0.04971">
        <ele>758.6</ele>
        <time>2024-07-24T23:52:34.788Z</time>
      </trkpt>
      <trkpt lat="42.97958" lon="-0.04968">
        <ele>758.6</ele>
        <time>2024-07-24T23:52:37.438Z</time>
      </trkpt>
      <trkpt lat="42.97942" lon="-0.04956">
        <ele>760.3</ele>
        <time>2024-07-24T23:52:45.337Z</time>
      </trkpt>
      <trkpt lat="42.97924" lon="-0.04929">
        <ele>764.5</ele>
        <time>2024-07-24T23:52:59.899Z</time>
      </trkpt>
      <trkpt lat="42.97919" lon="-0.04912">
        <ele>767.2</ele>
        <time>2024-07-24T23:53:08.553Z</time>
        <extensions>
          <visugpx:TrkExtension xmlns:visugpx="https://www.visugpx.com/editgpx/">
            <visugpx:node>14</visugpx:node>
            </visugpx:TrkExtension>
        </extensions>
      </trkpt>
      <trkpt lat="42.97913" lon="-0.04871">
        <ele>772.8</ele>
        <time>2024-07-24T23:53:26.943Z</time>
      </trkpt>
      <trkpt lat="42.9789" lon="-0.04838">
        <ele>772.5</ele>
        <time>2024-07-24T23:53:37.302Z</time>
      </trkpt>
      <trkpt lat="42.97879" lon="-0.04827">
        <ele>772.9</ele>
        <time>2024-07-24T23:53:42.074Z</time>
      </trkpt>
      <trkpt lat="42.97855" lon="-0.04811">
        <ele>773.9</ele>
        <time>2024-07-24T23:53:51.669Z</time>
      </trkpt>
      <trkpt lat="42.97844" lon="-0.04806">
        <ele>774</ele>
        <time>2024-07-24T23:53:55.471Z</time>
      </trkpt>
      <trkpt lat="42.97794" lon="-0.04764">
        <ele>779.6</ele>
        <time>2024-07-24T23:54:21.074Z</time>
      </trkpt>
      <trkpt lat="42.97769" lon="-0.0475">
        <ele>779.1</ele>
        <time>2024-07-24T23:54:29.229Z</time>
      </trkpt>
      <trkpt lat="42.97762" lon="-0.04744">
        <ele>779.5</ele>
        <time>2024-07-24T23:54:32.306Z</time>
      </trkpt>
      <trkpt lat="42.97757" lon="-0.04736">
        <ele>781</ele>
        <time>2024-07-24T23:54:37.149Z</time>
      </trkpt>
      <trkpt lat="42.97748" lon="-0.04717">
        <ele>784.1</ele>
        <time>2024-07-24T23:54:47.264Z</time>
      </trkpt>
      <trkpt lat="42.97734" lon="-0.04629">
        <ele>794.7</ele>
        <time>2024-07-24T23:55:23.671Z</time>
      </trkpt>
      <trkpt lat="42.97724" lon="-0.04602">
        <ele>795.3</ele>
        <time>2024-07-24T23:55:31.368Z</time>
      </trkpt>
      <trkpt lat="42.97713" lon="-0.04582">
        <ele>797</ele>
        <time>2024-07-24T23:55:39.283Z</time>
      </trkpt>
      <trkpt lat="42.97705" lon="-0.04551">
        <ele>803.1</ele>
        <time>2024-07-24T23:55:58.431Z</time>
      </trkpt>
      <trkpt lat="42.97698" lon="-0.04536">
        <ele>807.1</ele>
        <time>2024-07-24T23:56:11.380Z</time>
      </trkpt>
      <trkpt lat="42.97686" lon="-0.04534">
        <ele>809.3</ele>
        <time>2024-07-24T23:56:18.618Z</time>
      </trkpt>
      <trkpt lat="42.97679" lon="-0.04536">
        <ele>810</ele>
        <time>2024-07-24T23:56:21.764Z</time>
      </trkpt>
      <trkpt lat="42.97667" lon="-0.04547">
        <ele>809.4</ele>
        <time>2024-07-24T23:56:25.838Z</time>
      </trkpt>
      <trkpt lat="42.97655" lon="-0.04565">
        <ele>806.9</ele>
        <time>2024-07-24T23:56:30.816Z</time>
      </trkpt>
      <trkpt lat="42.9764" lon="-0.04594">
        <ele>801.7</ele>
        <time>2024-07-24T23:56:38.077Z</time>
      </trkpt>
      <trkpt lat="42.97618" lon="-0.04613">
        <ele>800.6</ele>
        <time>2024-07-24T23:56:45.398Z</time>
      </trkpt>
      <trkpt lat="42.97606" lon="-0.04618">
        <ele>801.4</ele>
        <time>2024-07-24T23:56:50.312Z</time>
      </trkpt>
      <trkpt lat="42.97571" lon="-0.04626">
        <ele>801.8</ele>
        <time>2024-07-24T23:57:02.047Z</time>
      </trkpt>
      <trkpt lat="42.97558" lon="-0.04627">
        <ele>801.2</ele>
        <time>2024-07-24T23:57:05.686Z</time>
      </trkpt>
      <trkpt lat="42.97514" lon="-0.0461">
        <ele>799.7</ele>
        <time>2024-07-24T23:57:18.912Z</time>
      </trkpt>
      <trkpt lat="42.97482" lon="-0.04609">
        <ele>801.8</ele>
        <time>2024-07-24T23:57:31.528Z</time>
      </trkpt>
      <trkpt lat="42.9745" lon="-0.04617">
        <ele>804.6</ele>
        <time>2024-07-24T23:57:45.269Z</time>
      </trkpt>
      <trkpt lat="42.97409" lon="-0.04634">
        <ele>805.6</ele>
        <time>2024-07-24T23:57:59.986Z</time>
      </trkpt>
      <trkpt lat="42.97401" lon="-0.04634">
        <ele>805.6</ele>
        <time>2024-07-24T23:58:02.541Z</time>
      </trkpt>
      <trkpt lat="42.9739" lon="-0.0463">
        <ele>806.3</ele>
        <time>2024-07-24T23:58:06.966Z</time>
      </trkpt>
      <trkpt lat="42.97365" lon="-0.04609">
        <ele>808.5</ele>
        <time>2024-07-24T23:58:18.902Z</time>
      </trkpt>
      <trkpt lat="42.97357" lon="-0.04599">
        <ele>809.8</ele>
        <time>2024-07-24T23:58:24.058Z</time>
      </trkpt>
      <trkpt lat="42.97357" lon="-0.04586">
        <ele>812.2</ele>
        <time>2024-07-24T23:58:31.590Z</time>
        <extensions>
          <visugpx:TrkExtension xmlns:visugpx="https://www.visugpx.com/editgpx/">
            <visugpx:node>15</visugpx:node>
            </visugpx:TrkExtension>
        </extensions>
      </trkpt>
      <trkpt lat="42.97373" lon="-0.04572">
        <ele>815</ele>
        <time>2024-07-24T23:58:41.573Z</time>
      </trkpt>
      <trkpt lat="42.97406" lon="-0.04549">
        <ele>818.7</ele>
        <time>2024-07-24T23:58:57.986Z</time>
      </trkpt>
      <trkpt lat="42.97455" lon="-0.04503">
        <ele>823.8</ele>
        <time>2024-07-24T23:59:23.073Z</time>
      </trkpt>
      <trkpt lat="42.97484" lon="-0.0447">
        <ele>826.5</ele>
        <time>2024-07-24T23:59:38.245Z</time>
      </trkpt>
      <trkpt lat="42.97496" lon="-0.04453">
        <ele>827.2</ele>
        <time>2024-07-24T23:59:44.518Z</time>
      </trkpt>
      <trkpt lat="42.97523" lon="-0.04402">
        <ele>833.2</ele>
        <time>2024-07-25T00:00:07.252Z</time>
      </trkpt>
      <trkpt lat="42.97533" lon="-0.04386">
        <ele>836.1</ele>
        <time>2024-07-25T00:00:16.698Z</time>
      </trkpt>
      <trkpt lat="42.97545" lon="-0.04372">
        <ele>838</ele>
        <time>2024-07-25T00:00:24.215Z</time>
      </trkpt>
      <trkpt lat="42.97566" lon="-0.04353">
        <ele>840.4</ele>
        <time>2024-07-25T00:00:35.197Z</time>
      </trkpt>
      <trkpt lat="42.97603" lon="-0.04329">
        <ele>843.9</ele>
        <time>2024-07-25T00:00:52.461Z</time>
      </trkpt>
      <trkpt lat="42.97647" lon="-0.04306">
        <ele>847.6</ele>
        <time>2024-07-25T00:01:11.855Z</time>
      </trkpt>
      <trkpt lat="42.97681" lon="-0.04285">
        <ele>850.9</ele>
        <time>2024-07-25T00:01:27.745Z</time>
        <extensions>
          <visugpx:TrkExtension xmlns:visugpx="https://www.visugpx.com/editgpx/">
            <visugpx:node>16</visugpx:node>
            </visugpx:TrkExtension>
        </extensions>
      </trkpt>
      <trkpt lat="42.97711" lon="-0.04272">
        <ele>850.5</ele>
        <time>2024-07-25T00:01:37.412Z</time>
      </trkpt>
      <trkpt lat="42.97732" lon="-0.04267">
        <ele>848.8</ele>
        <time>2024-07-25T00:01:43.369Z</time>
      </trkpt>
      <trkpt lat="42.97744" lon="-0.04267">
        <ele>846.9</ele>
        <time>2024-07-25T00:01:46.722Z</time>
      </trkpt>
      <trkpt lat="42.97768" lon="-0.04273">
        <ele>843.5</ele>
        <time>2024-07-25T00:01:53.539Z</time>
      </trkpt>
      <trkpt lat="42.97791" lon="-0.04281">
        <ele>842.5</ele>
        <time>2024-07-25T00:02:00.218Z</time>
      </trkpt>
      <trkpt lat="42.97806" lon="-0.04289">
        <ele>842.5</ele>
        <time>2024-07-25T00:02:05.360Z</time>
      </trkpt>
      <trkpt lat="42.97813" lon="-0.04296">
        <ele>842.6</ele>
        <time>2024-07-25T00:02:08.231Z</time>
      </trkpt>
      <trkpt lat="42.97828" lon="-0.04314">
        <ele>843.4</ele>
        <time>2024-07-25T00:02:15.465Z</time>
      </trkpt>
      <trkpt lat="42.9785" lon="-0.04346">
        <ele>844.8</ele>
        <time>2024-07-25T00:02:27.241Z</time>
      </trkpt>
      <trkpt lat="42.9786" lon="-0.04347">
        <ele>846.3</ele>
        <time>2024-07-25T00:02:32.553Z</time>
      </trkpt>
      <trkpt lat="42.97903" lon="-0.04336">
        <ele>851.1</ele>
        <time>2024-07-25T00:02:52.617Z</time>
      </trkpt>
      <trkpt lat="42.97927" lon="-0.04328">
        <ele>854.2</ele>
        <time>2024-07-25T00:03:04.602Z</time>
      </trkpt>
      <trkpt lat="42.97937" lon="-0.04319">
        <ele>856.6</ele>
        <time>2024-07-25T00:03:12.302Z</time>
      </trkpt>
      <trkpt lat="42.97951" lon="-0.04292">
        <ele>862.6</ele>
        <time>2024-07-25T00:03:31.125Z</time>
      </trkpt>
      <trkpt lat="42.97955" lon="-0.04288">
        <ele>864.1</ele>
        <time>2024-07-25T00:03:35.960Z</time>
      </trkpt>
      <trkpt lat="42.97961" lon="-0.04286">
        <ele>865.5</ele>
        <time>2024-07-25T00:03:40.368Z</time>
      </trkpt>
      <trkpt lat="42.97969" lon="-0.04287">
        <ele>866.8</ele>
        <time>2024-07-25T00:03:44.823Z</time>
      </trkpt>
      <trkpt lat="42.97975" lon="-0.04292">
        <ele>867.2</ele>
        <time>2024-07-25T00:03:47.514Z</time>
      </trkpt>
      <trkpt lat="42.97979" lon="-0.04307">
        <ele>865.8</ele>
        <time>2024-07-25T00:03:50.777Z</time>
      </trkpt>
      <trkpt lat="42.97985" lon="-0.04344">
        <ele>864.7</ele>
        <time>2024-07-25T00:03:58.637Z</time>
      </trkpt>
      <trkpt lat="42.97991" lon="-0.04363">
        <ele>864.9</ele>
        <time>2024-07-25T00:04:03.674Z</time>
      </trkpt>
      <trkpt lat="42.98007" lon="-0.04385">
        <ele>868.4</ele>
        <time>2024-07-25T00:04:15.906Z</time>
      </trkpt>
      <trkpt lat="42.98043" lon="-0.04417">
        <ele>872.2</ele>
        <time>2024-07-25T00:04:34.197Z</time>
      </trkpt>
      <trkpt lat="42.98051" lon="-0.0442">
        <ele>873.2</ele>
        <time>2024-07-25T00:04:38.150Z</time>
      </trkpt>
      <trkpt lat="42.98064" lon="-0.04419">
        <ele>875.9</ele>
        <time>2024-07-25T00:04:46.755Z</time>
      </trkpt>
      <trkpt lat="42.9809" lon="-0.0441">
        <ele>884.1</ele>
        <time>2024-07-25T00:05:13.263Z</time>
      </trkpt>
      <trkpt lat="42.98106" lon="-0.04408">
        <ele>890</ele>
        <time>2024-07-25T00:05:33.719Z</time>
      </trkpt>
      <trkpt lat="42.98122" lon="-0.0441">
        <ele>894.5</ele>
        <time>2024-07-25T00:05:47.988Z</time>
      </trkpt>
      <trkpt lat="42.98139" lon="-0.04417">
        <ele>896.9</ele>
        <time>2024-07-25T00:05:56.909Z</time>
      </trkpt>
      <trkpt lat="42.98151" lon="-0.04425">
        <ele>897.2</ele>
        <time>2024-07-25T00:06:01.482Z</time>
      </trkpt>
      <trkpt lat="42.98161" lon="-0.04435">
        <ele>896.5</ele>
        <time>2024-07-25T00:06:04.944Z</time>
      </trkpt>
      <trkpt lat="42.98169" lon="-0.04448">
        <ele>895</ele>
        <time>2024-07-25T00:06:08.417Z</time>
      </trkpt>
      <trkpt lat="42.98174" lon="-0.04468">
        <ele>893.4</ele>
        <time>2024-07-25T00:06:12.738Z</time>
      </trkpt>
      <trkpt lat="42.9818" lon="-0.04481">
        <ele>892.9</ele>
        <time>2024-07-25T00:06:15.881Z</time>
      </trkpt>
      <trkpt lat="42.98187" lon="-0.0449">
        <ele>893.4</ele>
        <time>2024-07-25T00:06:19.502Z</time>
      </trkpt>
      <trkpt lat="42.98193" lon="-0.04492">
        <ele>894.8</ele>
        <time>2024-07-25T00:06:23.909Z</time>
      </trkpt>
      <trkpt lat="42.9822" lon="-0.04492">
        <ele>897.6</ele>
        <time>2024-07-25T00:06:36.033Z</time>
      </trkpt>
      <trkpt lat="42.98237" lon="-0.0449">
        <ele>899.8</ele>
        <time>2024-07-25T00:06:44.415Z</time>
      </trkpt>
      <trkpt lat="42.98263" lon="-0.04483">
        <ele>902.8</ele>
        <time>2024-07-25T00:06:56.720Z</time>
      </trkpt>
      <trkpt lat="42.98289" lon="-0.04474">
        <ele>905.7</ele>
        <time>2024-07-25T00:07:08.952Z</time>
        <extensions>
          <visugpx:TrkExtension xmlns:visugpx="https://www.visugpx.com/editgpx/">
            <visugpx:node>17</visugpx:node>
            </visugpx:TrkExtension>
        </extensions>
      </trkpt>
      <trkpt lat="42.98319" lon="-0.04461">
        <ele>909.5</ele>
        <time>2024-07-25T00:07:23.962Z</time>
      </trkpt>
      <trkpt lat="42.98337" lon="-0.04463">
        <ele>911.9</ele>
        <time>2024-07-25T00:07:32.962Z</time>
      </trkpt>
      <trkpt lat="42.98364" lon="-0.04475">
        <ele>915.4</ele>
        <time>2024-07-25T00:07:46.627Z</time>
      </trkpt>
      <trkpt lat="42.98376" lon="-0.04478">
        <ele>917.1</ele>
        <time>2024-07-25T00:07:52.851Z</time>
      </trkpt>
      <trkpt lat="42.98399" lon="-0.04478">
        <ele>919.6</ele>
        <time>2024-07-25T00:08:03.361Z</time>
      </trkpt>
      <trkpt lat="42.98404" lon="-0.04474">
        <ele>920</ele>
        <time>2024-07-25T00:08:05.671Z</time>
      </trkpt>
      <trkpt lat="42.98406" lon="-0.0447">
        <ele>920.3</ele>
        <time>2024-07-25T00:08:07.161Z</time>
      </trkpt>
      <trkpt lat="42.98411" lon="-0.0445">
        <ele>921.2</ele>
        <time>2024-07-25T00:08:13.107Z</time>
      </trkpt>
      <trkpt lat="42.98415" lon="-0.04419">
        <ele>923.7</ele>
        <time>2024-07-25T00:08:23.626Z</time>
      </trkpt>
      <trkpt lat="42.98417" lon="-0.04413">
        <ele>924.6</ele>
        <time>2024-07-25T00:08:26.565Z</time>
      </trkpt>
      <trkpt lat="42.98428" lon="-0.04406">
        <ele>926.4</ele>
        <time>2024-07-25T00:08:32.964Z</time>
      </trkpt>
      <trkpt lat="42.98489" lon="-0.04395">
        <ele>931.3</ele>
        <time>2024-07-25T00:08:58.389Z</time>
      </trkpt>
      <trkpt lat="42.98526" lon="-0.04382">
        <ele>934.5</ele>
        <time>2024-07-25T00:09:14.400Z</time>
      </trkpt>
      <trkpt lat="42.98541" lon="-0.0438">
        <ele>935.7</ele>
        <time>2024-07-25T00:09:20.628Z</time>
      </trkpt>
      <trkpt lat="42.98564" lon="-0.0438">
        <ele>937.2</ele>
        <time>2024-07-25T00:09:29.681Z</time>
      </trkpt>
      <trkpt lat="42.98602" lon="-0.04383">
        <ele>939.4</ele>
        <time>2024-07-25T00:09:44.299Z</time>
      </trkpt>
      <trkpt lat="42.98635" lon="-0.04388">
        <ele>940.9</ele>
        <time>2024-07-25T00:09:56.533Z</time>
      </trkpt>
      <trkpt lat="42.98725" lon="-0.04406">
        <ele>947.3</ele>
        <time>2024-07-25T00:10:32.960Z</time>
      </trkpt>
      <trkpt lat="42.98743" lon="-0.04405">
        <ele>948</ele>
        <time>2024-07-25T00:10:39.463Z</time>
      </trkpt>
      <trkpt lat="42.9876" lon="-0.04399">
        <ele>949.3</ele>
        <time>2024-07-25T00:10:46.582Z</time>
      </trkpt>
      <trkpt lat="42.98825" lon="-0.04362">
        <ele>957.2</ele>
        <time>2024-07-25T00:11:19.159Z</time>
      </trkpt>
      <trkpt lat="42.98834" lon="-0.04355">
        <ele>958.7</ele>
        <time>2024-07-25T00:11:24.549Z</time>
      </trkpt>
      <trkpt lat="42.9886" lon="-0.04329">
        <ele>963.4</ele>
        <time>2024-07-25T00:11:41.385Z</time>
      </trkpt>
      <trkpt lat="42.98878" lon="-0.04317">
        <ele>966.9</ele>
        <time>2024-07-25T00:11:53.047Z</time>
      </trkpt>
      <trkpt lat="42.98883" lon="-0.04316">
        <ele>967.7</ele>
        <time>2024-07-25T00:11:55.813Z</time>
      </trkpt>
      <trkpt lat="42.9889" lon="-0.04317">
        <ele>968.5</ele>
        <time>2024-07-25T00:11:59.086Z</time>
      </trkpt>
      <trkpt lat="42.98897" lon="-0.0432">
        <ele>969.1</ele>
        <time>2024-07-25T00:12:02.140Z</time>
      </trkpt>
      <trkpt lat="42.98936" lon="-0.04344">
        <ele>970.9</ele>
        <time>2024-07-25T00:12:17.741Z</time>
      </trkpt>
      <trkpt lat="42.98963" lon="-0.04358">
        <ele>972.1</ele>
        <time>2024-07-25T00:12:28.256Z</time>
      </trkpt>
      <trkpt lat="42.98976" lon="-0.04361">
        <ele>973.1</ele>
        <time>2024-07-25T00:12:33.635Z</time>
      </trkpt>
      <trkpt lat="42.98985" lon="-0.04357">
        <ele>973.9</ele>
        <time>2024-07-25T00:12:37.611Z</time>
      </trkpt>
      <trkpt lat="42.98992" lon="-0.04349">
        <ele>975</ele>
        <time>2024-07-25T00:12:41.960Z</time>
      </trkpt>
      <trkpt lat="42.98999" lon="-0.04336">
        <ele>976.7</ele>
        <time>2024-07-25T00:12:48.087Z</time>
      </trkpt>
      <trkpt lat="42.99" lon="-0.0433">
        <ele>977.6</ele>
        <time>2024-07-25T00:12:50.976Z</time>
        <extensions>
          <visugpx:TrkExtension xmlns:visugpx="https://www.visugpx.com/editgpx/">
            <visugpx:node>18</visugpx:node>
            </visugpx:TrkExtension>
        </extensions>
      </trkpt>
      <trkpt lat="42.99001" lon="-0.04324">
        <ele>978.7</ele>
        <time>2024-07-25T00:12:54.427Z</time>
      </trkpt>
      <trkpt lat="42.98998" lon="-0.04308">
        <ele>981.5</ele>
        <time>2024-07-25T00:13:03.227Z</time>
      </trkpt>
      <trkpt lat="42.98987" lon="-0.04285">
        <ele>986</ele>
        <time>2024-07-25T00:13:17.411Z</time>
      </trkpt>
      <trkpt lat="42.98932" lon="-0.042">
        <ele>998.7</ele>
        <time>2024-07-25T00:14:01.948Z</time>
      </trkpt>
      <trkpt lat="42.98918" lon="-0.04181">
        <ele>1003</ele>
        <time>2024-07-25T00:14:15.544Z</time>
      </trkpt>
      <trkpt lat="42.98908" lon="-0.04172">
        <ele>1005.1</ele>
        <time>2024-07-25T00:14:22.534Z</time>
      </trkpt>
      <trkpt lat="42.9887" lon="-0.04151">
        <ele>1008.8</ele>
        <time>2024-07-25T00:14:40.099Z</time>
      </trkpt>
      <trkpt lat="42.98817" lon="-0.04126">
        <ele>1012.3</ele>
        <time>2024-07-25T00:15:01.964Z</time>
      </trkpt>
      <trkpt lat="42.988" lon="-0.04115">
        <ele>1014.7</ele>
        <time>2024-07-25T00:15:11.159Z</time>
      </trkpt>
      <trkpt lat="42.98766" lon="-0.04087">
        <ele>1019.2</ele>
        <time>2024-07-25T00:15:29.600Z</time>
      </trkpt>
      <trkpt lat="42.98737" lon="-0.04054">
        <ele>1023</ele>
        <time>2024-07-25T00:15:46.367Z</time>
      </trkpt>
      <trkpt lat="42.98728" lon="-0.04047">
        <ele>1023.5</ele>
        <time>2024-07-25T00:15:50.221Z</time>
      </trkpt>
      <trkpt lat="42.98686" lon="-0.04031">
        <ele>1027</ele>
        <time>2024-07-25T00:16:08.277Z</time>
      </trkpt>
      <trkpt lat="42.98629" lon="-0.04005">
        <ele>1037.8</ele>
        <time>2024-07-25T00:16:43.941Z</time>
      </trkpt>
      <trkpt lat="42.9861" lon="-0.03998">
        <ele>1042</ele>
        <time>2024-07-25T00:16:57.261Z</time>
      </trkpt>
      <trkpt lat="42.98574" lon="-0.0399">
        <ele>1046.1</ele>
        <time>2024-07-25T00:17:14.149Z</time>
      </trkpt>
      <trkpt lat="42.98557" lon="-0.03984">
        <ele>1047.4</ele>
        <time>2024-07-25T00:17:21.268Z</time>
      </trkpt>
      <trkpt lat="42.98537" lon="-0.03972">
        <ele>1049.4</ele>
        <time>2024-07-25T00:17:30.670Z</time>
      </trkpt>
      <trkpt lat="42.98516" lon="-0.03949">
        <ele>1053.1</ele>
        <time>2024-07-25T00:17:44.306Z</time>
      </trkpt>
      <trkpt lat="42.98479" lon="-0.039">
        <ele>1058.6</ele>
        <time>2024-07-25T00:18:07.689Z</time>
      </trkpt>
      <trkpt lat="42.98454" lon="-0.0388">
        <ele>1061.5</ele>
        <time>2024-07-25T00:18:20.533Z</time>
      </trkpt>
      <trkpt lat="42.98437" lon="-0.03872">
        <ele>1063.2</ele>
        <time>2024-07-25T00:18:28.353Z</time>
        <extensions>
          <visugpx:TrkExtension xmlns:visugpx="https://www.visugpx.com/editgpx/">
            <visugpx:node>19</visugpx:node>
            </visugpx:TrkExtension>
        </extensions>
      </trkpt>
      <trkpt lat="42.98401" lon="-0.03858">
        <ele>1068.1</ele>
        <time>2024-07-25T00:18:46.871Z</time>
      </trkpt>
      <trkpt lat="42.98373" lon="-0.03839">
        <ele>1071.8</ele>
        <time>2024-07-25T00:19:01.655Z</time>
      </trkpt>
      <trkpt lat="42.98342" lon="-0.03808">
        <ele>1075.7</ele>
        <time>2024-07-25T00:19:18.772Z</time>
      </trkpt>
      <trkpt lat="42.98327" lon="-0.03789">
        <ele>1078.4</ele>
        <time>2024-07-25T00:19:28.930Z</time>
      </trkpt>
      <trkpt lat="42.98315" lon="-0.03765">
        <ele>1082.7</ele>
        <time>2024-07-25T00:19:42.701Z</time>
      </trkpt>
      <trkpt lat="42.98287" lon="-0.03722">
        <ele>1089.1</ele>
        <time>2024-07-25T00:20:05.210Z</time>
      </trkpt>
      <trkpt lat="42.9827" lon="-0.03701">
        <ele>1092.8</ele>
        <time>2024-07-25T00:20:17.900Z</time>
      </trkpt>
      <trkpt lat="42.98254" lon="-0.03688">
        <ele>1094.4</ele>
        <time>2024-07-25T00:20:25.759Z</time>
      </trkpt>
      <trkpt lat="42.98225" lon="-0.03668">
        <ele>1096.9</ele>
        <time>2024-07-25T00:20:39.061Z</time>
      </trkpt>
      <trkpt lat="42.98212" lon="-0.03653">
        <ele>1096.9</ele>
        <time>2024-07-25T00:20:44.493Z</time>
      </trkpt>
      <trkpt lat="42.98201" lon="-0.03636">
        <ele>1097.7</ele>
        <time>2024-07-25T00:20:50.671Z</time>
      </trkpt>
      <trkpt lat="42.98193" lon="-0.03614">
        <ele>1099.9</ele>
        <time>2024-07-25T00:20:59.295Z</time>
      </trkpt>
      <trkpt lat="42.98185" lon="-0.03579">
        <ele>1102.5</ele>
        <time>2024-07-25T00:21:11.059Z</time>
      </trkpt>
      <trkpt lat="42.98185" lon="-0.03558">
        <ele>1105.3</ele>
        <time>2024-07-25T00:21:20.266Z</time>
      </trkpt>
      <trkpt lat="42.98192" lon="-0.03518">
        <ele>1112.7</ele>
        <time>2024-07-25T00:21:43.479Z</time>
      </trkpt>
      <trkpt lat="42.98184" lon="-0.03493">
        <ele>1115.9</ele>
        <time>2024-07-25T00:21:54.486Z</time>
      </trkpt>
      <trkpt lat="42.9813" lon="-0.03427">
        <ele>1123.3</ele>
        <time>2024-07-25T00:22:26.837Z</time>
      </trkpt>
      <trkpt lat="42.98115" lon="-0.03398">
        <ele>1125.4</ele>
        <time>2024-07-25T00:22:37.618Z</time>
        <extensions>
          <visugpx:TrkExtension xmlns:visugpx="https://www.visugpx.com/editgpx/">
            <visugpx:node>20</visugpx:node>
            </visugpx:TrkExtension>
        </extensions>
      </trkpt>
      <trkpt lat="42.98087" lon="-0.0333">
        <ele>1130.8</ele>
        <time>2024-07-25T00:23:02.451Z</time>
      </trkpt>
      <trkpt lat="42.98067" lon="-0.03269">
        <ele>1133.7</ele>
        <time>2024-07-25T00:23:21.325Z</time>
      </trkpt>
      <trkpt lat="42.98048" lon="-0.03195">
        <ele>1139.1</ele>
        <time>2024-07-25T00:23:46.243Z</time>
      </trkpt>
      <trkpt lat="42.98037" lon="-0.03174">
        <ele>1146.1</ele>
        <time>2024-07-25T00:24:10.614Z</time>
      </trkpt>
      <trkpt lat="42.98024" lon="-0.03165">
        <ele>1148.5</ele>
        <time>2024-07-25T00:24:18.782Z</time>
      </trkpt>
      <trkpt lat="42.98004" lon="-0.03157">
        <ele>1150.5</ele>
        <time>2024-07-25T00:24:27.891Z</time>
      </trkpt>
      <trkpt lat="42.9795" lon="-0.03145">
        <ele>1151.4</ele>
        <time>2024-07-25T00:24:46.279Z</time>
      </trkpt>
      <trkpt lat="42.9793" lon="-0.03138">
        <ele>1151.2</ele>
        <time>2024-07-25T00:24:52.679Z</time>
      </trkpt>
      <trkpt lat="42.97909" lon="-0.03121">
        <ele>1153</ele>
        <time>2024-07-25T00:25:02.566Z</time>
      </trkpt>
      <trkpt lat="42.97903" lon="-0.03109">
        <ele>1155.1</ele>
        <time>2024-07-25T00:25:09.325Z</time>
      </trkpt>
      <trkpt lat="42.97903" lon="-0.03102">
        <ele>1156.9</ele>
        <time>2024-07-25T00:25:15.444Z</time>
      </trkpt>
      <trkpt lat="42.9791" lon="-0.03094">
        <ele>1160.6</ele>
        <time>2024-07-25T00:25:28.897Z</time>
      </trkpt>
      <trkpt lat="42.97922" lon="-0.03096">
        <ele>1162.9</ele>
        <time>2024-07-25T00:25:36.369Z</time>
      </trkpt>
      <trkpt lat="42.97961" lon="-0.03114">
        <ele>1163.7</ele>
        <time>2024-07-25T00:25:50.335Z</time>
      </trkpt>
      <trkpt lat="42.97971" lon="-0.03114">
        <ele>1164.8</ele>
        <time>2024-07-25T00:25:54.926Z</time>
      </trkpt>
      <trkpt lat="42.97975" lon="-0.03111">
        <ele>1166.3</ele>
        <time>2024-07-25T00:25:59.890Z</time>
      </trkpt>
      <trkpt lat="42.97978" lon="-0.03107">
        <ele>1168</ele>
        <time>2024-07-25T00:26:06.072Z</time>
      </trkpt>
      <trkpt lat="42.97979" lon="-0.03099">
        <ele>1170.8</ele>
        <time>2024-07-25T00:26:16.027Z</time>
      </trkpt>
      <trkpt lat="42.97973" lon="-0.0309">
        <ele>1172.9</ele>
        <time>2024-07-25T00:26:22.620Z</time>
      </trkpt>
      <trkpt lat="42.97936" lon="-0.03067">
        <ele>1172.7</ele>
        <time>2024-07-25T00:26:35.406Z</time>
      </trkpt>
      <trkpt lat="42.97917" lon="-0.03044">
        <ele>1173.1</ele>
        <time>2024-07-25T00:26:43.918Z</time>
      </trkpt>
      <trkpt lat="42.97909" lon="-0.03024">
        <ele>1175.1</ele>
        <time>2024-07-25T00:26:51.849Z</time>
      </trkpt>
      <trkpt lat="42.97907" lon="-0.03007">
        <ele>1176.8</ele>
        <time>2024-07-25T00:26:58.173Z</time>
      </trkpt>
      <trkpt lat="42.97907" lon="-0.02978">
        <ele>1178.4</ele>
        <time>2024-07-25T00:27:06.816Z</time>
      </trkpt>
      <trkpt lat="42.97912" lon="-0.02953">
        <ele>1178.6</ele>
        <time>2024-07-25T00:27:13.072Z</time>
      </trkpt>
      <trkpt lat="42.97926" lon="-0.02907">
        <ele>1179.2</ele>
        <time>2024-07-25T00:27:25.323Z</time>
      </trkpt>
      <trkpt lat="42.97928" lon="-0.0289">
        <ele>1179</ele>
        <time>2024-07-25T00:27:29.156Z</time>
      </trkpt>
      <trkpt lat="42.97925" lon="-0.0285">
        <ele>1179.6</ele>
        <time>2024-07-25T00:27:39.167Z</time>
      </trkpt>
      <trkpt lat="42.97919" lon="-0.02827">
        <ele>1180</ele>
        <time>2024-07-25T00:27:45.285Z</time>
      </trkpt>
      <trkpt lat="42.97911" lon="-0.02808">
        <ele>1179.8</ele>
        <time>2024-07-25T00:27:50.215Z</time>
      </trkpt>
      <trkpt lat="42.97895" lon="-0.02781">
        <ele>1180.8</ele>
        <time>2024-07-25T00:27:59.406Z</time>
      </trkpt>
      <trkpt lat="42.97885" lon="-0.02753">
        <ele>1180.7</ele>
        <time>2024-07-25T00:28:06.588Z</time>
      </trkpt>
      <trkpt lat="42.97872" lon="-0.02703">
        <ele>1185.6</ele>
        <time>2024-07-25T00:28:25.472Z</time>
      </trkpt>
      <trkpt lat="42.97851" lon="-0.02638">
        <ele>1190.2</ele>
        <time>2024-07-25T00:28:47.614Z</time>
      </trkpt>
      <trkpt lat="42.97851" lon="-0.02624">
        <ele>1191.2</ele>
        <time>2024-07-25T00:28:52.117Z</time>
      </trkpt>
      <trkpt lat="42.97853" lon="-0.02612">
        <ele>1192.5</ele>
        <time>2024-07-25T00:28:56.796Z</time>
        <extensions>
          <visugpx:TrkExtension xmlns:visugpx="https://www.visugpx.com/editgpx/">
            <visugpx:node>21</visugpx:node>
            </visugpx:TrkExtension>
        </extensions>
      </trkpt>
      <trkpt lat="42.97879" lon="-0.0255">
        <ele>1200.2</ele>
        <time>2024-07-25T00:29:24.259Z</time>
      </trkpt>
      <trkpt lat="42.97894" lon="-0.02521">
        <ele>1203</ele>
        <time>2024-07-25T00:29:36.094Z</time>
      </trkpt>
      <trkpt lat="42.97898" lon="-0.02505">
        <ele>1204.4</ele>
        <time>2024-07-25T00:29:41.837Z</time>
      </trkpt>
      <trkpt lat="42.97899" lon="-0.02493">
        <ele>1205.4</ele>
        <time>2024-07-25T00:29:45.939Z</time>
      </trkpt>
      <trkpt lat="42.97896" lon="-0.02475">
        <ele>1205.8</ele>
        <time>2024-07-25T00:29:50.672Z</time>
      </trkpt>
      <trkpt lat="42.97889" lon="-0.02464">
        <ele>1204.2</ele>
        <time>2024-07-25T00:29:53.653Z</time>
      </trkpt>
      <trkpt lat="42.97882" lon="-0.02457">
        <ele>1204.7</ele>
        <time>2024-07-25T00:29:56.982Z</time>
      </trkpt>
      <trkpt lat="42.97874" lon="-0.02456">
        <ele>1204.2</ele>
        <time>2024-07-25T00:29:59.227Z</time>
        <extensions>
          <visugpx:TrkExtension xmlns:visugpx="https://www.visugpx.com/editgpx/">
            <visugpx:node>22</visugpx:node>
            </visugpx:TrkExtension>
        </extensions>
      </trkpt>
      <trkpt lat="42.97868" lon="-0.02457">
        <ele>1203.6</ele>
        <time>2024-07-25T00:30:00.916Z</time>
      </trkpt>
      <trkpt lat="42.97864" lon="-0.02461">
        <ele>1203</ele>
        <time>2024-07-25T00:30:02.300Z</time>
      </trkpt>
      <trkpt lat="42.9784" lon="-0.025">
        <ele>1206.6</ele>
        <time>2024-07-25T00:30:18.630Z</time>
      </trkpt>
      <trkpt lat="42.97829" lon="-0.02514">
        <ele>1207.4</ele>
        <time>2024-07-25T00:30:24.316Z</time>
      </trkpt>
      <trkpt lat="42.97815" lon="-0.02526">
        <ele>1209.8</ele>
        <time>2024-07-25T00:30:32.931Z</time>
      </trkpt>
      <trkpt lat="42.97808" lon="-0.02525">
        <ele>1213</ele>
        <time>2024-07-25T00:30:44.731Z</time>
      </trkpt>
      <trkpt lat="42.97691" lon="-0.02618">
        <ele>1217.8</ele>
        <time>2024-07-25T00:31:33.056Z</time>
      </trkpt>
      <trkpt lat="42.97674" lon="-0.0262">
        <ele>1219</ele>
        <time>2024-07-25T00:31:39.889Z</time>
      </trkpt>
      <trkpt lat="42.97658" lon="-0.02611">
        <ele>1220.4</ele>
        <time>2024-07-25T00:31:47.070Z</time>
      </trkpt>
      <trkpt lat="42.97622" lon="-0.02549">
        <ele>1230.4</ele>
        <time>2024-07-25T00:32:20.527Z</time>
      </trkpt>
      <trkpt lat="42.97603" lon="-0.02534">
        <ele>1233.7</ele>
        <time>2024-07-25T00:32:32.187Z</time>
      </trkpt>
      <trkpt lat="42.97568" lon="-0.02537">
        <ele>1235.5</ele>
        <time>2024-07-25T00:32:45.371Z</time>
      </trkpt>
      <trkpt lat="42.97535" lon="-0.02549">
        <ele>1238.1</ele>
        <time>2024-07-25T00:32:59.315Z</time>
      </trkpt>
      <trkpt lat="42.97497" lon="-0.02571">
        <ele>1242</ele>
        <time>2024-07-25T00:33:17.262Z</time>
      </trkpt>
      <trkpt lat="42.97415" lon="-0.02666">
        <ele>1252</ele>
        <time>2024-07-25T00:34:03.770Z</time>
      </trkpt>
      <trkpt lat="42.97411" lon="-0.02679">
        <ele>1250.8</ele>
        <time>2024-07-25T00:34:06.653Z</time>
      </trkpt>
      <trkpt lat="42.97395" lon="-0.02703">
        <ele>1250.6</ele>
        <time>2024-07-25T00:34:14.046Z</time>
      </trkpt>
      <trkpt lat="42.97365" lon="-0.02745">
        <ele>1252.5</ele>
        <time>2024-07-25T00:34:29.822Z</time>
      </trkpt>
      <trkpt lat="42.97356" lon="-0.02754">
        <ele>1253.2</ele>
        <time>2024-07-25T00:34:34.176Z</time>
      </trkpt>
      <trkpt lat="42.97349" lon="-0.0276">
        <ele>1253.5</ele>
        <time>2024-07-25T00:34:37.134Z</time>
      </trkpt>
      <trkpt lat="42.97339" lon="-0.02763">
        <ele>1255</ele>
        <time>2024-07-25T00:34:42.497Z</time>
      </trkpt>
      <trkpt lat="42.97336" lon="-0.02761">
        <ele>1256</ele>
        <time>2024-07-25T00:34:45.712Z</time>
      </trkpt>
      <trkpt lat="42.97331" lon="-0.02768">
        <ele>1254.9</ele>
        <time>2024-07-25T00:34:47.712Z</time>
      </trkpt>
      <trkpt lat="42.97328" lon="-0.02769">
        <ele>1254.5</ele>
        <time>2024-07-25T00:34:48.575Z</time>
      </trkpt>
      <trkpt lat="42.97318" lon="-0.02763">
        <ele>1254.8</ele>
        <time>2024-07-25T00:34:52.376Z</time>
      </trkpt>
      <trkpt lat="42.97316" lon="-0.02759">
        <ele>1255.2</ele>
        <time>2024-07-25T00:34:54.020Z</time>
        <extensions>
          <visugpx:TrkExtension xmlns:visugpx="https://www.visugpx.com/editgpx/">
            <visugpx:node>23</visugpx:node>
            </visugpx:TrkExtension>
        </extensions>
      </trkpt>
      <trkpt lat="42.97318" lon="-0.02763">
        <ele>1254.8</ele>
        <time>2024-07-25T00:34:55.010Z</time>
      </trkpt>
      <trkpt lat="42.97328" lon="-0.02769">
        <ele>1254.5</ele>
        <time>2024-07-25T00:34:58.220Z</time>
      </trkpt>
      <trkpt lat="42.97331" lon="-0.02768">
        <ele>1254.9</ele>
        <time>2024-07-25T00:34:59.740Z</time>
      </trkpt>
      <trkpt lat="42.97336" lon="-0.02761">
        <ele>1256</ele>
        <time>2024-07-25T00:35:03.590Z</time>
      </trkpt>
      <trkpt lat="42.9733" lon="-0.02757">
        <ele>1257.1</ele>
        <time>2024-07-25T00:35:07.333Z</time>
      </trkpt>
      <trkpt lat="42.97327" lon="-0.02752">
        <ele>1257.7</ele>
        <time>2024-07-25T00:35:09.639Z</time>
      </trkpt>
      <trkpt lat="42.97325" lon="-0.02738">
        <ele>1258.8</ele>
        <time>2024-07-25T00:35:14.354Z</time>
      </trkpt>
      <trkpt lat="42.9733" lon="-0.02673">
        <ele>1267.1</ele>
        <time>2024-07-25T00:35:42.075Z</time>
      </trkpt>
      <trkpt lat="42.97332" lon="-0.02603">
        <ele>1274.5</ele>
        <time>2024-07-25T00:36:08.712Z</time>
      </trkpt>
      <trkpt lat="42.97331" lon="-0.02589">
        <ele>1275.8</ele>
        <time>2024-07-25T00:36:13.720Z</time>
      </trkpt>
      <trkpt lat="42.97327" lon="-0.02563">
        <ele>1277.9</ele>
        <time>2024-07-25T00:36:22.582Z</time>
      </trkpt>
      <trkpt lat="42.97315" lon="-0.02521">
        <ele>1281.3</ele>
        <time>2024-07-25T00:36:37.363Z</time>
      </trkpt>
      <trkpt lat="42.97306" lon="-0.02436">
        <ele>1288.3</ele>
        <time>2024-07-25T00:37:06.355Z</time>
      </trkpt>
      <trkpt lat="42.97287" lon="-0.0235">
        <ele>1296.7</ele>
        <time>2024-07-25T00:37:38.510Z</time>
      </trkpt>
      <trkpt lat="42.9728" lon="-0.02308">
        <ele>1300.3</ele>
        <time>2024-07-25T00:37:53.197Z</time>
      </trkpt>
      <trkpt lat="42.97255" lon="-0.02195">
        <ele>1312.5</ele>
        <time>2024-07-25T00:38:37.572Z</time>
      </trkpt>
      <trkpt lat="42.97244" lon="-0.02171">
        <ele>1315.2</ele>
        <time>2024-07-25T00:38:47.801Z</time>
      </trkpt>
      <trkpt lat="42.97224" lon="-0.02143">
        <ele>1318.4</ele>
        <time>2024-07-25T00:39:01.027Z</time>
      </trkpt>
      <trkpt lat="42.97213" lon="-0.02119">
        <ele>1320.4</ele>
        <time>2024-07-25T00:39:10.102Z</time>
      </trkpt>
      <trkpt lat="42.97204" lon="-0.02064">
        <ele>1325.4</ele>
        <time>2024-07-25T00:39:29.806Z</time>
      </trkpt>
      <trkpt lat="42.97204" lon="-0.02002">
        <ele>1328.7</ele>
        <time>2024-07-25T00:39:48.120Z</time>
      </trkpt>
      <trkpt lat="42.97201" lon="-0.01975">
        <ele>1329.9</ele>
        <time>2024-07-25T00:39:55.851Z</time>
      </trkpt>
      <trkpt lat="42.97178" lon="-0.01879">
        <ele>1336.3</ele>
        <time>2024-07-25T00:40:27.128Z</time>
      </trkpt>
      <trkpt lat="42.97175" lon="-0.01862">
        <ele>1337.8</ele>
        <time>2024-07-25T00:40:33.155Z</time>
      </trkpt>
      <trkpt lat="42.97176" lon="-0.01834">
        <ele>1341.6</ele>
        <time>2024-07-25T00:40:45.590Z</time>
        <extensions>
          <visugpx:TrkExtension xmlns:visugpx="https://www.visugpx.com/editgpx/">
            <visugpx:node>24</visugpx:node>
            </visugpx:TrkExtension>
        </extensions>
      </trkpt>
      <trkpt lat="42.97182" lon="-0.01812">
        <ele>1344.4</ele>
        <time>2024-07-25T00:40:55.158Z</time>
      </trkpt>
      <trkpt lat="42.97196" lon="-0.01796">
        <ele>1350.2</ele>
        <time>2024-07-25T00:41:14.128Z</time>
      </trkpt>
      <trkpt lat="42.97205" lon="-0.01793">
        <ele>1351.9</ele>
        <time>2024-07-25T00:41:19.707Z</time>
      </trkpt>
      <trkpt lat="42.97215" lon="-0.01793">
        <ele>1353</ele>
        <time>2024-07-25T00:41:24.298Z</time>
      </trkpt>
      <trkpt lat="42.97223" lon="-0.01798">
        <ele>1353.3</ele>
        <time>2024-07-25T00:41:27.425Z</time>
      </trkpt>
      <trkpt lat="42.97228" lon="-0.01806">
        <ele>1353.6</ele>
        <time>2024-07-25T00:41:30.205Z</time>
      </trkpt>
      <trkpt lat="42.97242" lon="-0.01874">
        <ele>1355.2</ele>
        <time>2024-07-25T00:41:48.395Z</time>
      </trkpt>
      <trkpt lat="42.97254" lon="-0.01898">
        <ele>1356.8</ele>
        <time>2024-07-25T00:41:57.053Z</time>
      </trkpt>
      <trkpt lat="42.97285" lon="-0.01926">
        <ele>1361.3</ele>
        <time>2024-07-25T00:42:14.799Z</time>
      </trkpt>
      <trkpt lat="42.97316" lon="-0.01949">
        <ele>1364.1</ele>
        <time>2024-07-25T00:42:29.363Z</time>
      </trkpt>
      <trkpt lat="42.97329" lon="-0.01954">
        <ele>1365.2</ele>
        <time>2024-07-25T00:42:34.978Z</time>
      </trkpt>
      <trkpt lat="42.97341" lon="-0.01954">
        <ele>1366.2</ele>
        <time>2024-07-25T00:42:40.000Z</time>
      </trkpt>
      <trkpt lat="42.97348" lon="-0.01951">
        <ele>1366.8</ele>
        <time>2024-07-25T00:42:43.053Z</time>
      </trkpt>
      <trkpt lat="42.97368" lon="-0.01935">
        <ele>1368.9</ele>
        <time>2024-07-25T00:42:52.997Z</time>
      </trkpt>
      <trkpt lat="42.97386" lon="-0.01912">
        <ele>1370.8</ele>
        <time>2024-07-25T00:43:03.092Z</time>
        <extensions>
          <visugpx:TrkExtension xmlns:visugpx="https://www.visugpx.com/editgpx/">
            <visugpx:node>25</visugpx:node>
            </visugpx:TrkExtension>
        </extensions>
      </trkpt>
      <trkpt lat="42.974" lon="-0.01887">
        <ele>1373.4</ele>
        <time>2024-07-25T00:43:13.775Z</time>
      </trkpt>
      <trkpt lat="42.97419" lon="-0.0183">
        <ele>1379.3</ele>
        <time>2024-07-25T00:43:36.272Z</time>
      </trkpt>
      <trkpt lat="42.97428" lon="-0.01816">
        <ele>1380.7</ele>
        <time>2024-07-25T00:43:42.372Z</time>
      </trkpt>
      <trkpt lat="42.97442" lon="-0.01803">
        <ele>1382.4</ele>
        <time>2024-07-25T00:43:49.886Z</time>
      </trkpt>
      <trkpt lat="42.97521" lon="-0.01752">
        <ele>1389.9</ele>
        <time>2024-07-25T00:44:26.763Z</time>
      </trkpt>
      <trkpt lat="42.97534" lon="-0.01745">
        <ele>1390.8</ele>
        <time>2024-07-25T00:44:32.249Z</time>
      </trkpt>
      <trkpt lat="42.97571" lon="-0.01715">
        <ele>1394.3</ele>
        <time>2024-07-25T00:44:50.131Z</time>
      </trkpt>
      <trkpt lat="42.97591" lon="-0.01694">
        <ele>1396.5</ele>
        <time>2024-07-25T00:45:00.827Z</time>
      </trkpt>
      <trkpt lat="42.976" lon="-0.01676">
        <ele>1397.7</ele>
        <time>2024-07-25T00:45:07.320Z</time>
      </trkpt>
      <trkpt lat="42.97609" lon="-0.01653">
        <ele>1398.4</ele>
        <time>2024-07-25T00:45:14.161Z</time>
      </trkpt>
      <trkpt lat="42.97617" lon="-0.01624">
        <ele>1400.1</ele>
        <time>2024-07-25T00:45:23.384Z</time>
      </trkpt>
      <trkpt lat="42.97659" lon="-0.01517">
        <ele>1408.9</ele>
        <time>2024-07-25T00:46:02.634Z</time>
      </trkpt>
      <trkpt lat="42.97674" lon="-0.015">
        <ele>1410.5</ele>
        <time>2024-07-25T00:46:10.754Z</time>
      </trkpt>
      <trkpt lat="42.97707" lon="-0.01478">
        <ele>1412.1</ele>
        <time>2024-07-25T00:46:24.212Z</time>
      </trkpt>
      <trkpt lat="42.97737" lon="-0.01456">
        <ele>1412.7</ele>
        <time>2024-07-25T00:46:35.697Z</time>
      </trkpt>
      <trkpt lat="42.97744" lon="-0.01449">
        <ele>1413</ele>
        <time>2024-07-25T00:46:38.785Z</time>
      </trkpt>
      <trkpt lat="42.97749" lon="-0.01432">
        <ele>1414.9</ele>
        <time>2024-07-25T00:46:45.684Z</time>
      </trkpt>
      <trkpt lat="42.97748" lon="-0.01425">
        <ele>1416</ele>
        <time>2024-07-25T00:46:49.180Z</time>
      </trkpt>
      <trkpt lat="42.97745" lon="-0.01418">
        <ele>1417.3</ele>
        <time>2024-07-25T00:46:53.288Z</time>
      </trkpt>
      <trkpt lat="42.97739" lon="-0.01414">
        <ele>1418.7</ele>
        <time>2024-07-25T00:46:57.741Z</time>
        <extensions>
          <visugpx:TrkExtension xmlns:visugpx="https://www.visugpx.com/editgpx/">
            <visugpx:node>26</visugpx:node>
            </visugpx:TrkExtension>
        </extensions>
      </trkpt>
      <trkpt lat="42.97732" lon="-0.01414">
        <ele>1419.5</ele>
        <time>2024-07-25T00:47:01.003Z</time>
      </trkpt>
      <trkpt lat="42.9769" lon="-0.0143">
        <ele>1422.1</ele>
        <time>2024-07-25T00:47:17.850Z</time>
      </trkpt>
      <trkpt lat="42.97594" lon="-0.01445">
        <ele>1429.8</ele>
        <time>2024-07-25T00:47:57.786Z</time>
      </trkpt>
      <trkpt lat="42.97576" lon="-0.01451">
        <ele>1431.2</ele>
        <time>2024-07-25T00:48:05.338Z</time>
      </trkpt>
      <trkpt lat="42.97559" lon="-0.01463">
        <ele>1432.4</ele>
        <time>2024-07-25T00:48:12.807Z</time>
      </trkpt>
      <trkpt lat="42.97545" lon="-0.01476">
        <ele>1433</ele>
        <time>2024-07-25T00:48:18.850Z</time>
      </trkpt>
      <trkpt lat="42.97528" lon="-0.01486">
        <ele>1434.5</ele>
        <time>2024-07-25T00:48:26.534Z</time>
      </trkpt>
      <trkpt lat="42.97519" lon="-0.01487">
        <ele>1434.7</ele>
        <time>2024-07-25T00:48:29.624Z</time>
      </trkpt>
      <trkpt lat="42.9751" lon="-0.01486">
        <ele>1435.2</ele>
        <time>2024-07-25T00:48:33.064Z</time>
      </trkpt>
      <trkpt lat="42.97503" lon="-0.01483">
        <ele>1435.7</ele>
        <time>2024-07-25T00:48:35.981Z</time>
      </trkpt>
      <trkpt lat="42.97498" lon="-0.01478">
        <ele>1436.4</ele>
        <time>2024-07-25T00:48:38.855Z</time>
      </trkpt>
      <trkpt lat="42.97494" lon="-0.01469">
        <ele>1437.3</ele>
        <time>2024-07-25T00:48:42.479Z</time>
      </trkpt>
      <trkpt lat="42.97493" lon="-0.01452">
        <ele>1439.2</ele>
        <time>2024-07-25T00:48:49.155Z</time>
        <extensions>
          <visugpx:TrkExtension xmlns:visugpx="https://www.visugpx.com/editgpx/">
            <visugpx:node>27</visugpx:node>
            </visugpx:TrkExtension>
        </extensions>
      </trkpt>
      <trkpt lat="42.97497" lon="-0.01443">
        <ele>1440.1</ele>
        <time>2024-07-25T00:48:52.779Z</time>
      </trkpt>
      <trkpt lat="42.9751" lon="-0.0143">
        <ele>1441.1</ele>
        <time>2024-07-25T00:48:59.054Z</time>
      </trkpt>
      <trkpt lat="42.97563" lon="-0.01393">
        <ele>1445.2</ele>
        <time>2024-07-25T00:49:22.770Z</time>
      </trkpt>
      <trkpt lat="42.97633" lon="-0.01339">
        <ele>1452.4</ele>
        <time>2024-07-25T00:49:57.135Z</time>
      </trkpt>
      <trkpt lat="42.97663" lon="-0.01319">
        <ele>1455.2</ele>
        <time>2024-07-25T00:50:11.130Z</time>
      </trkpt>
      <trkpt lat="42.97698" lon="-0.01292">
        <ele>1458.2</ele>
        <time>2024-07-25T00:50:27.459Z</time>
      </trkpt>
      <trkpt lat="42.97721" lon="-0.01258">
        <ele>1461.7</ele>
        <time>2024-07-25T00:50:42.651Z</time>
        <extensions>
          <visugpx:TrkExtension xmlns:visugpx="https://www.visugpx.com/editgpx/">
            <visugpx:node>28</visugpx:node>
            </visugpx:TrkExtension>
        </extensions>
      </trkpt>
      <trkpt lat="42.97728" lon="-0.01247">
        <ele>1462.1</ele>
        <time>2024-07-25T00:50:46.484Z</time>
      </trkpt>
      <trkpt lat="42.97739" lon="-0.01217">
        <ele>1463.4</ele>
        <time>2024-07-25T00:50:55.763Z</time>
      </trkpt>
      <trkpt lat="42.9774" lon="-0.01201">
        <ele>1463.7</ele>
        <time>2024-07-25T00:50:59.827Z</time>
      </trkpt>
      <trkpt lat="42.97738" lon="-0.01191">
        <ele>1464.5</ele>
        <time>2024-07-25T00:51:03.254Z</time>
      </trkpt>
      <trkpt lat="42.97714" lon="-0.01127">
        <ele>1470.4</ele>
        <time>2024-07-25T00:51:27.593Z</time>
      </trkpt>
      <trkpt lat="42.97688" lon="-0.01015">
        <ele>1478.3</ele>
        <time>2024-07-25T00:52:04.642Z</time>
      </trkpt>
      <trkpt lat="42.97671" lon="-0.00983">
        <ele>1482</ele>
        <time>2024-07-25T00:52:18.800Z</time>
      </trkpt>
      <trkpt lat="42.97668" lon="-0.00973">
        <ele>1481.9</ele>
        <time>2024-07-25T00:52:21.230Z</time>
        <extensions>
          <visugpx:TrkExtension xmlns:visugpx="https://www.visugpx.com/editgpx/">
            <visugpx:node>29</visugpx:node>
            </visugpx:TrkExtension>
        </extensions>
      </trkpt>
      <trkpt lat="42.97664" lon="-0.0096">
        <ele>1483.6</ele>
        <time>2024-07-25T00:52:27.015Z</time>
      </trkpt>
      <trkpt lat="42.97664" lon="-0.00949">
        <ele>1483.8</ele>
        <time>2024-07-25T00:52:29.793Z</time>
      </trkpt>
      <trkpt lat="42.97666" lon="-0.0094">
        <ele>1483.4</ele>
        <time>2024-07-25T00:52:31.716Z</time>
      </trkpt>
      <trkpt lat="42.977" lon="-0.00905">
        <ele>1485.5</ele>
        <time>2024-07-25T00:52:47.613Z</time>
      </trkpt>
      <trkpt lat="42.97706" lon="-0.00896">
        <ele>1485.9</ele>
        <time>2024-07-25T00:52:50.893Z</time>
      </trkpt>
      <trkpt lat="42.97708" lon="-0.00878">
        <ele>1488.1</ele>
        <time>2024-07-25T00:52:58.372Z</time>
      </trkpt>
      <trkpt lat="42.97696" lon="-0.00859">
        <ele>1492.2</ele>
        <time>2024-07-25T00:53:11.299Z</time>
      </trkpt>
      <trkpt lat="42.97674" lon="-0.00848">
        <ele>1495.8</ele>
        <time>2024-07-25T00:53:23.900Z</time>
      </trkpt>
      <trkpt lat="42.97653" lon="-0.00849">
        <ele>1495.9</ele>
        <time>2024-07-25T00:53:30.709Z</time>
      </trkpt>
      <trkpt lat="42.97645" lon="-0.00853">
        <ele>1495.1</ele>
        <time>2024-07-25T00:53:33.090Z</time>
      </trkpt>
      <trkpt lat="42.97635" lon="-0.00866">
        <ele>1495</ele>
        <time>2024-07-25T00:53:37.400Z</time>
      </trkpt>
      <trkpt lat="42.97632" lon="-0.00878">
        <ele>1495.8</ele>
        <time>2024-07-25T00:53:41.321Z</time>
      </trkpt>
      <trkpt lat="42.97631" lon="-0.00891">
        <ele>1496</ele>
        <time>2024-07-25T00:53:44.581Z</time>
        <extensions>
          <visugpx:TrkExtension xmlns:visugpx="https://www.visugpx.com/editgpx/">
            <visugpx:node>30</visugpx:node>
            </visugpx:TrkExtension>
        </extensions>
      </trkpt>
      <trkpt lat="42.97624" lon="-0.01027">
        <ele>1501.8</ele>
        <time>2024-07-25T00:54:22.933Z</time>
      </trkpt>
      <trkpt lat="42.97603" lon="-0.01131">
        <ele>1504.4</ele>
        <time>2024-07-25T00:54:50.889Z</time>
      </trkpt>
      <trkpt lat="42.97596" lon="-0.01147">
        <ele>1504.5</ele>
        <time>2024-07-25T00:54:55.345Z</time>
      </trkpt>
      <trkpt lat="42.97588" lon="-0.01156">
        <ele>1504.8</ele>
        <time>2024-07-25T00:54:58.968Z</time>
      </trkpt>
      <trkpt lat="42.9758" lon="-0.01161">
        <ele>1505.2</ele>
        <time>2024-07-25T00:55:02.212Z</time>
      </trkpt>
      <trkpt lat="42.97571" lon="-0.01159">
        <ele>1505.7</ele>
        <time>2024-07-25T00:55:05.680Z</time>
      </trkpt>
      <trkpt lat="42.97558" lon="-0.0115">
        <ele>1507</ele>
        <time>2024-07-25T00:55:11.903Z</time>
        <extensions>
          <visugpx:TrkExtension xmlns:visugpx="https://www.visugpx.com/editgpx/">
            <visugpx:node>31</visugpx:node>
            </visugpx:TrkExtension>
        </extensions>
      </trkpt>
      <trkpt lat="42.97551" lon="-0.0114">
        <ele>1508.1</ele>
        <time>2024-07-25T00:55:16.529Z</time>
      </trkpt>
      <trkpt lat="42.97547" lon="-0.01129">
        <ele>1509.2</ele>
        <time>2024-07-25T00:55:20.841Z</time>
      </trkpt>
      <trkpt lat="42.97551" lon="-0.01064">
        <ele>1513.6</ele>
        <time>2024-07-25T00:55:41.430Z</time>
      </trkpt>
      <trkpt lat="42.97539" lon="-0.01059">
        <ele>1514.4</ele>
        <time>2024-07-25T00:55:46.344Z</time>
      </trkpt>
      <trkpt lat="42.97481" lon="-0.01005">
        <ele>1519.6</ele>
        <time>2024-07-25T00:56:14.805Z</time>
      </trkpt>
      <trkpt lat="42.9747" lon="-0.00998">
        <ele>1519.3</ele>
        <time>2024-07-25T00:56:18.400Z</time>
        <extensions>
          <visugpx:TrkExtension xmlns:visugpx="https://www.visugpx.com/editgpx/">
            <visugpx:node>32</visugpx:node>
            </visugpx:TrkExtension>
        </extensions>
      </trkpt>
      <trkpt lat="42.97402" lon="-0.00935">
        <ele>1524</ele>
        <time>2024-07-25T00:56:49.889Z</time>
        <extensions>
          <visugpx:TrkExtension xmlns:visugpx="https://www.visugpx.com/editgpx/">
            <visugpx:node>33</visugpx:node>
            </visugpx:TrkExtension>
        </extensions>
      </trkpt>
      <trkpt lat="42.97382" lon="-0.00919">
        <ele>1523.8</ele>
        <time>2024-07-25T00:56:57.096Z</time>
      </trkpt>
      <trkpt lat="42.97371" lon="-0.00906">
        <ele>1524.4</ele>
        <time>2024-07-25T00:57:02.386Z</time>
      </trkpt>
      <trkpt lat="42.97361" lon="-0.00892">
        <ele>1524.5</ele>
        <time>2024-07-25T00:57:07.058Z</time>
      </trkpt>
      <trkpt lat="42.97349" lon="-0.00869">
        <ele>1525</ele>
        <time>2024-07-25T00:57:14.176Z</time>
        <extensions>
          <visugpx:TrkExtension xmlns:visugpx="https://www.visugpx.com/editgpx/">
            <visugpx:node>34</visugpx:node>
            </visugpx:TrkExtension>
        </extensions>
      </trkpt>
      <trkpt lat="42.9734" lon="-0.00857">
        <ele>1525.1</ele>
        <time>2024-07-25T00:57:18.292Z</time>
      </trkpt>
      <trkpt lat="42.97314" lon="-0.00833">
        <ele>1524.5</ele>
        <time>2024-07-25T00:57:27.745Z</time>
      </trkpt>
      <trkpt lat="42.97296" lon="-0.00808">
        <ele>1524.3</ele>
        <time>2024-07-25T00:57:35.747Z</time>
      </trkpt>
      <trkpt lat="42.97282" lon="-0.00785">
        <ele>1523.7</ele>
        <time>2024-07-25T00:57:42.181Z</time>
      </trkpt>
      <trkpt lat="42.97264" lon="-0.0075">
        <ele>1523.2</ele>
        <time>2024-07-25T00:57:51.702Z</time>
        <extensions>
          <visugpx:TrkExtension xmlns:visugpx="https://www.visugpx.com/editgpx/">
            <visugpx:node>35</visugpx:node>
            </visugpx:TrkExtension>
        </extensions>
      </trkpt>
      <trkpt lat="42.97253" lon="-0.00736">
        <ele>1522</ele>
        <time>2024-07-25T00:57:55.902Z</time>
      </trkpt>
      <trkpt lat="42.97246" lon="-0.00733">
        <ele>1521.2</ele>
        <time>2024-07-25T00:57:57.952Z</time>
      </trkpt>
      <trkpt lat="42.9723" lon="-0.00734">
        <ele>1520.1</ele>
        <time>2024-07-25T00:58:02.427Z</time>
        <extensions>
          <visugpx:TrkExtension xmlns:visugpx="https://www.visugpx.com/editgpx/">
            <visugpx:node>36</visugpx:node>
            </visugpx:TrkExtension>
        </extensions>
      </trkpt>
      <trkpt lat="42.97226" lon="-0.00735">
        <ele>1519.8</ele>
        <time>2024-07-25T00:58:03.563Z</time>
      </trkpt>
      <trkpt lat="42.97221" lon="-0.00743">
        <ele>1519.3</ele>
        <time>2024-07-25T00:58:05.714Z</time>
      </trkpt>
      <trkpt lat="42.97216" lon="-0.0076">
        <ele>1517.5</ele>
        <time>2024-07-25T00:58:09.460Z</time>
        <extensions>
          <visugpx:TrkExtension xmlns:visugpx="https://www.visugpx.com/editgpx/">
            <visugpx:node>37</visugpx:node>
            </visugpx:TrkExtension>
        </extensions>
      </trkpt>
    </trkseg>
  </trk>
</gpx>